Wetterdaten: Sonntag, 27.10.2013
Datum Zeit Temp. Aussen +5cm Feuchte Auss Luftdruck Regen Sonnenschein Regendauer UV Solar Windben
27.10.2013 00:00 15,6 C 13,3 C 94 % 1008,1 hPa 0,0 l/m 0 min 0 min 0,0 UV-I 0 W/m 2,6 km/h (1 Bft)
27.10.2013 00:02 15,6 C 13,3 C 94 % 1008,1 hPa 0,0 l/m 0 min 0 min 0,0 UV-I 0 W/m 2,6 km/h (1 Bft)
27.10.2013 00:06 15,5 C 13,3 C 94 % 1008,1 hPa 0,0 l/m 0 min 0 min 0,0 UV-I 0 W/m 10,3 km/h (2 Bft)
27.10.2013 00:08 15,5 C 13,3 C 94 % 1008,0 hPa 0,0 l/m 0 min 0 min 0,0 UV-I 0 W/m 2,6 km/h (1 Bft)
27.10.2013 00:10 15,4 C 13,3 C 94 % 1008,0 hPa 0,0 l/m 0 min 0 min 0,0 UV-I 0 W/m 7,7 km/h (2 Bft)
27.10.2013 00:12 15,4 C 13,3 C 94 % 1008,0 hPa 0,0 l/m 0 min 0 min 0,0 UV-I 0 W/m 7,7 km/h (2 Bft)
27.10.2013 00:14 15,4 C 13,3 C 94 % 1007,9 hPa 0,0 l/m 0 min 0 min 0,0 UV-I 0 W/m 5,1 km/h (1 Bft)
27.10.2013 00:16 15,4 C 13,3 C 94 % 1007,9 hPa 0,0 l/m 0 min 0 min 0,0 UV-I 0 W/m 5,1 km/h (1 Bft)
27.10.2013 00:18 15,4 C 13,3 C 94 % 1007,9 hPa 0,0 l/m 0 min 0 min 0,0 UV-I 0 W/m 0,0 km/h (0 Bft)
27.10.2013 00:20 15,4 C 13,3 C 94 % 1007,9 hPa 0,0 l/m 0 min 0 min 0,0 UV-I 0 W/m 7,7 km/h (2 Bft)
27.10.2013 00:22 15,4 C 13,3 C 94 % 1007,8 hPa 0,0 l/m 0 min 0 min 0,0 UV-I 0 W/m 10,3 km/h (2 Bft)
27.10.2013 00:24 15,4 C 13,3 C 94 % 1007,8 hPa 0,0 l/m 0 min 0 min 0,0 UV-I 0 W/m 10,3 km/h (2 Bft)
27.10.2013 00:26 15,4 C 13,3 C 94 % 1007,8 hPa 0,0 l/m 0 min 0 min 0,0 UV-I 0 W/m 7,7 km/h (2 Bft)
27.10.2013 00:28 15,4 C 13,3 C 94 % 1007,9 hPa 0,0 l/m 0 min 0 min 0,0 UV-I 0 W/m 10,3 km/h (2 Bft)
27.10.2013 00:30 15,4 C 13,3 C 94 % 1007,9 hPa 0,0 l/m 0 min 0 min 0,0 UV-I 0 W/m 5,1 km/h (1 Bft)
27.10.2013 00:32 15,5 C 13,3 C 94 % 1007,9 hPa 0,0 l/m 0 min 0 min 0,0 UV-I 0 W/m 7,7 km/h (2 Bft)
27.10.2013 00:34 15,5 C 13,3 C 94 % 1007,8 hPa 0,0 l/m 0 min 0 min 0,0 UV-I 0 W/m 10,3 km/h (2 Bft)
27.10.2013 00:36 15,5 C 13,3 C 94 % 1007,8 hPa 0,0 l/m 0 min 0 min 0,0 UV-I 0 W/m 0,0 km/h (0 Bft)
27.10.2013 00:38 15,5 C 13,3 C 94 % 1007,8 hPa 0,0 l/m 0 min 0 min 0,0 UV-I 0 W/m 7,7 km/h (2 Bft)
27.10.2013 00:40 15,5 C 13,3 C 94 % 1007,7 hPa 0,0 l/m 0 min 0 min 0,0 UV-I 0 W/m 0,0 km/h (0 Bft)
27.10.2013 00:42 15,5 C 13,3 C 94 % 1007,8 hPa 0,0 l/m 0 min 0 min 0,0 UV-I 0 W/m 0,0 km/h (0 Bft)
27.10.2013 00:44 15,5 C 13,3 C 94 % 1007,8 hPa 0,0 l/m 0 min 0 min 0,0 UV-I 0 W/m 5,1 km/h (1 Bft)
27.10.2013 00:46 15,5 C 13,9 C 94 % 1007,8 hPa 0,0 l/m 0 min 0 min 0,0 UV-I 0 W/m 0,0 km/h (0 Bft)
27.10.2013 00:48 15,6 C 13,9 C 94 % 1007,9 hPa 0,0 l/m 0 min 0 min 0,0 UV-I 0 W/m 12,9 km/h (3 Bft)
27.10.2013 00:50 15,6 C 13,9 C 94 % 1007,9 hPa 0,0 l/m 0 min 0 min 0,0 UV-I 0 W/m 5,1 km/h (1 Bft)
27.10.2013 00:52 15,6 C 13,9 C 94 % 1007,9 hPa 0,0 l/m 0 min 0 min 0,0 UV-I 0 W/m 10,3 km/h (2 Bft)
27.10.2013 00:54 15,6 C 13,9 C 94 % 1007,9 hPa 0,0 l/m 0 min 0 min 0,0 UV-I 0 W/m 0,0 km/h (0 Bft)
27.10.2013 00:56 15,6 C 13,9 C 94 % 1007,9 hPa 0,0 l/m 0 min 0 min 0,0 UV-I 0 W/m 10,3 km/h (2 Bft)
27.10.2013 00:58 15,6 C 13,9 C 94 % 1007,8 hPa 0,0 l/m 0 min 0 min 0,0 UV-I 0 W/m 2,6 km/h (1 Bft)
27.10.2013 01:00 15,6 C 13,9 C 94 % 1007,8 hPa 0,0 l/m 0 min 0 min 0,0 UV-I 0 W/m 0,0 km/h (0 Bft)
27.10.2013 01:02 15,6 C 13,3 C 94 % 1007,8 hPa 0,0 l/m 0 min 0 min 0,0 UV-I 0 W/m 0,0 km/h (0 Bft)
27.10.2013 01:06 15,6 C 13,3 C 94 % 1007,9 hPa 0,0 l/m 0 min 0 min 0,0 UV-I 0 W/m 5,1 km/h (1 Bft)
27.10.2013 01:08 15,6 C 13,3 C 94 % 1007,8 hPa 0,0 l/m 0 min 0 min 0,0 UV-I 0 W/m 2,6 km/h (1 Bft)
27.10.2013 01:10 15,6 C 13,3 C 94 % 1007,7 hPa 0,0 l/m 0 min 0 min 0,0 UV-I 0 W/m 0,0 km/h (0 Bft)
27.10.2013 01:12 15,5 C 13,3 C 94 % 1007,7 hPa 0,0 l/m 0 min 0 min 0,0 UV-I 0 W/m 0,0 km/h (0 Bft)
27.10.2013 01:14 15,5 C 13,3 C 94 % 1007,7 hPa 0,0 l/m 0 min 0 min 0,0 UV-I 0 W/m 0,0 km/h (0 Bft)
27.10.2013 01:16 15,4 C 13,3 C 94 % 1007,7 hPa 0,0 l/m 0 min 0 min 0,0 UV-I 0 W/m 0,0 km/h (0 Bft)
27.10.2013 01:18 15,4 C 13,3 C 94 % 1007,7 hPa 0,0 l/m 0 min 0 min 0,0 UV-I 0 W/m 10,3 km/h (2 Bft)
27.10.2013 01:20 15,4 C 13,3 C 94 % 1007,7 hPa 0,0 l/m 0 min 0 min 0,0 UV-I 0 W/m 0,0 km/h (0 Bft)
27.10.2013 01:22 15,4 C 13,3 C 94 % 1007,7 hPa 0,0 l/m 0 min 0 min 0,0 UV-I 0 W/m 15,4 km/h (3 Bft)
27.10.2013 01:24 15,4 C 13,9 C 94 % 1007,7 hPa 0,0 l/m 0 min 0 min 0,0 UV-I 0 W/m 7,7 km/h (2 Bft)
27.10.2013 01:26 15,5 C 13,3 C 94 % 1007,7 hPa 0,0 l/m 0 min 0 min 0,0 UV-I 0 W/m 7,7 km/h (2 Bft)
27.10.2013 01:28 15,5 C 13,9 C 94 % 1007,6 hPa 0,0 l/m 0 min 0 min 0,0 UV-I 0 W/m 0,0 km/h (0 Bft)
27.10.2013 01:30 15,4 C 13,3 C 94 % 1007,5 hPa 0,0 l/m 0 min 0 min 0,0 UV-I 0 W/m 0,0 km/h (0 Bft)
27.10.2013 01:32 15,4 C 13,3 C 94 % 1007,5 hPa 0,0 l/m 0 min 0 min 0,0 UV-I 0 W/m 7,7 km/h (2 Bft)
27.10.2013 01:34 15,4 C 13,3 C 94 % 1007,5 hPa 0,0 l/m 0 min 0 min 0,0 UV-I 0 W/m 0,0 km/h (0 Bft)
27.10.2013 01:36 15,4 C 13,3 C 94 % 1007,4 hPa 0,0 l/m 0 min 0 min 0,0 UV-I 0 W/m 0,0 km/h (0 Bft)
27.10.2013 01:38 15,4 C 13,3 C 94 % 1007,5 hPa 0,0 l/m 0 min 0 min 0,0 UV-I 0 W/m 0,0 km/h (0 Bft)
27.10.2013 01:40 15,3 C 13,3 C 94 % 1007,5 hPa 0,0 l/m 0 min 0 min 0,0 UV-I 0 W/m 0,0 km/h (0 Bft)
27.10.2013 01:42 15,3 C 13,3 C 94 % 1007,5 hPa 0,0 l/m 0 min 0 min 0,0 UV-I 0 W/m 0,0 km/h (0 Bft)
27.10.2013 01:44 15,3 C 13,3 C 94 % 1007,4 hPa 0,0 l/m 0 min 0 min 0,0 UV-I 0 W/m 0,0 km/h (0 Bft)
27.10.2013 01:46 15,3 C 13,3 C 94 % 1007,3 hPa 0,0 l/m 0 min 0 min 0,0 UV-I 0 W/m 0,0 km/h (0 Bft)
27.10.2013 01:48 15,2 C 13,3 C 94 % 1007,3 hPa 0,0 l/m 0 min 0 min 0,0 UV-I 0 W/m 0,0 km/h (0 Bft)
27.10.2013 01:50 15,2 C 13,3 C 94 % 1007,2 hPa 0,0 l/m 0 min 0 min 0,0 UV-I 0 W/m 0,0 km/h (0 Bft)
27.10.2013 01:52 15,2 C 13,3 C 94 % 1007,1 hPa 0,0 l/m 0 min 0 min 0,0 UV-I 0 W/m 0,0 km/h (0 Bft)
27.10.2013 01:54 15,2 C 13,3 C 94 % 1007,2 hPa 0,0 l/m 0 min 0 min 0,0 UV-I 0 W/m 5,1 km/h (1 Bft)
27.10.2013 01:56 15,2 C 13,3 C 94 % 1007,3 hPa 0,0 l/m 0 min 0 min 0,0 UV-I 0 W/m 5,1 km/h (1 Bft)
27.10.2013 01:58 15,2 C 13,3 C 94 % 1007,3 hPa 0,0 l/m 0 min 0 min 0,0 UV-I 0 W/m 5,1 km/h (1 Bft)
27.10.2013 02:00 15,2 C 13,3 C 94 % 1007,3 hPa 0,0 l/m 0 min 0 min 0,0 UV-I 0 W/m 2,6 km/h (1 Bft)
27.10.2013 02:02 15,2 C 13,3 C 94 % 1007,3 hPa 0,0 l/m 0 min 0 min 0,0 UV-I 0 W/m 5,1 km/h (1 Bft)
27.10.2013 02:06 15,2 C 13,3 C 94 % 1007,5 hPa 0,0 l/m 0 min 0 min 0,0 UV-I 0 W/m 5,1 km/h (1 Bft)
27.10.2013 02:08 15,3 C 13,3 C 95 % 1007,5 hPa 0,0 l/m 0 min 0 min 0,0 UV-I 0 W/m 12,9 km/h (3 Bft)
27.10.2013 02:10 15,3 C 13,9 C 95 % 1007,5 hPa 0,0 l/m 0 min 0 min 0,0 UV-I 0 W/m 0,0 km/h (0 Bft)
27.10.2013 02:12 15,4 C 13,9 C 94 % 1007,5 hPa 0,0 l/m 0 min 0 min 0,0 UV-I 0 W/m 0,0 km/h (0 Bft)
27.10.2013 02:14 15,4 C 13,9 C 94 % 1007,5 hPa 0,0 l/m 0 min 0 min 0,0 UV-I 0 W/m 2,6 km/h (1 Bft)
27.10.2013 02:16 15,4 C 13,9 C 94 % 1007,3 hPa 0,0 l/m 0 min 0 min 0,0 UV-I 0 W/m 10,3 km/h (2 Bft)
27.10.2013 02:18 15,5 C 13,9 C 94 % 1007,3 hPa 0,0 l/m 0 min 0 min 0,0 UV-I 0 W/m 5,1 km/h (1 Bft)
27.10.2013 02:20 15,6 C 13,9 C 94 % 1007,3 hPa 0,0 l/m 0 min 0 min 0,0 UV-I 0 W/m 7,7 km/h (2 Bft)
27.10.2013 02:22 15,6 C 13,9 C 94 % 1007,3 hPa 0,0 l/m 0 min 0 min 0,0 UV-I 0 W/m 5,1 km/h (1 Bft)
27.10.2013 02:24 15,6 C 13,9 C 94 % 1007,3 hPa 0,0 l/m 0 min 0 min 0,0 UV-I 0 W/m 7,7 km/h (2 Bft)
27.10.2013 02:26 15,7 C 13,9 C 94 % 1007,3 hPa 0,0 l/m 0 min 0 min 0,0 UV-I 0 W/m 5,1 km/h (1 Bft)
27.10.2013 02:28 15,7 C 13,9 C 93 % 1007,3 hPa 0,0 l/m 0 min 0 min 0,0 UV-I 0 W/m 12,9 km/h (3 Bft)
27.10.2013 02:30 15,7 C 13,9 C 93 % 1007,3 hPa 0,0 l/m 0 min 0 min 0,0 UV-I 0 W/m 10,3 km/h (2 Bft)
27.10.2013 02:32 15,8 C 13,9 C 93 % 1007,2 hPa 0,0 l/m 0 min 0 min 0,0 UV-I 0 W/m 12,9 km/h (3 Bft)
27.10.2013 02:34 15,8 C 13,9 C 93 % 1007,2 hPa 0,0 l/m 0 min 0 min 0,0 UV-I 0 W/m 10,3 km/h (2 Bft)
27.10.2013 02:36 15,8 C 13,9 C 93 % 1007,2 hPa 0,0 l/m 0 min 0 min 0,0 UV-I 0 W/m 5,1 km/h (1 Bft)
27.10.2013 02:38 15,8 C 13,9 C 93 % 1007,3 hPa 0,0 l/m 0 min 0 min 0,0 UV-I 0 W/m 10,3 km/h (2 Bft)
27.10.2013 02:40 15,8 C 13,9 C 93 % 1007,2 hPa 0,0 l/m 0 min 0 min 0,0 UV-I 0 W/m 7,7 km/h (2 Bft)
27.10.2013 02:42 15,8 C 13,9 C 93 % 1007,1 hPa 0,0 l/m 0 min 0 min 0,0 UV-I 0 W/m 0,0 km/h (0 Bft)
27.10.2013 02:44 15,8 C 13,9 C 93 % 1007,0 hPa 0,0 l/m 0 min 0 min 0,0 UV-I 0 W/m 5,1 km/h (1 Bft)
27.10.2013 02:46 15,8 C 13,9 C 92 % 1006,9 hPa 0,0 l/m 0 min 0 min 0,0 UV-I 0 W/m 5,1 km/h (1 Bft)
27.10.2013 02:48 15,8 C 13,9 C 92 % 1006,8 hPa 0,0 l/m 0 min 0 min 0,0 UV-I 0 W/m 15,4 km/h (3 Bft)
27.10.2013 02:50 15,8 C 13,9 C 92 % 1006,9 hPa 0,0 l/m 0 min 0 min 0,0 UV-I 0 W/m 12,9 km/h (3 Bft)
27.10.2013 02:52 15,9 C 13,9 C 92 % 1007,0 hPa 0,0 l/m 0 min 0 min 0,0 UV-I 0 W/m 7,7 km/h (2 Bft)
27.10.2013 02:54 15,9 C 14,4 C 92 % 1006,9 hPa 0,0 l/m 0 min 0 min 0,0 UV-I 0 W/m 12,9 km/h (3 Bft)
27.10.2013 02:56 16,0 C 14,4 C 92 % 1006,9 hPa 0,0 l/m 0 min 0 min 0,0 UV-I 0 W/m 7,7 km/h (2 Bft)
27.10.2013 02:58 16,0 C 14,4 C 91 % 1006,9 hPa 0,0 l/m 0 min 0 min 0,0 UV-I 0 W/m 10,3 km/h (2 Bft)
27.10.2013 02:00 16,1 C 14,4 C 91 % 1006,7 hPa 0,0 l/m 0 min 0 min 0,0 UV-I 0 W/m 18,0 km/h (3 Bft)
27.10.2013 02:04 16,2 C 14,4 C 90 % 1006,6 hPa 0,0 l/m 0 min 0 min 0,0 UV-I 0 W/m 20,6 km/h (4 Bft)
27.10.2013 02:08 16,3 C 14,4 C 89 % 1006,4 hPa 0,0 l/m 0 min 0 min 0,0 UV-I 0 W/m 15,4 km/h (3 Bft)
27.10.2013 02:10 16,3 C 14,4 C 89 % 1006,5 hPa 0,0 l/m 0 min 0 min 0,0 UV-I 0 W/m 7,7 km/h (2 Bft)
27.10.2013 02:12 16,3 C 14,4 C 89 % 1006,5 hPa 0,0 l/m 0 min 0 min 0,0 UV-I 0 W/m 15,4 km/h (3 Bft)
27.10.2013 02:14 16,3 C 14,4 C 88 % 1006,6 hPa 0,0 l/m 0 min 0 min 0,0 UV-I 0 W/m 15,4 km/h (3 Bft)
27.10.2013 02:16 16,4 C 14,4 C 88 % 1006,5 hPa 0,0 l/m 0 min 0 min 0,0 UV-I 0 W/m 18,0 km/h (3 Bft)
27.10.2013 02:18 16,4 C 14,4 C 88 % 1006,5 hPa 0,0 l/m 0 min 0 min 0,0 UV-I 0 W/m 15,4 km/h (3 Bft)
27.10.2013 02:20 16,4 C 14,4 C 88 % 1006,5 hPa 0,0 l/m 0 min 0 min 0,0 UV-I 0 W/m 5,1 km/h (1 Bft)
27.10.2013 02:22 16,4 C 14,4 C 88 % 1006,6 hPa 0,0 l/m 0 min 0 min 0,0 UV-I 0 W/m 20,6 km/h (4 Bft)
27.10.2013 02:24 16,4 C 14,4 C 87 % 1006,6 hPa 0,0 l/m 0 min 0 min 0,0 UV-I 0 W/m 12,9 km/h (3 Bft)
27.10.2013 02:26 16,4 C 14,4 C 87 % 1006,6 hPa 0,0 l/m 0 min 0 min 0,0 UV-I 0 W/m 7,7 km/h (2 Bft)
27.10.2013 02:28 16,4 C 14,4 C 87 % 1006,6 hPa 0,0 l/m 0 min 0 min 0,0 UV-I 0 W/m 10,3 km/h (2 Bft)
27.10.2013 02:30 16,4 C 14,4 C 87 % 1006,6 hPa 0,0 l/m 0 min 0 min 0,0 UV-I 0 W/m 18,0 km/h (3 Bft)
27.10.2013 02:32 16,4 C 14,4 C 87 % 1006,7 hPa 0,0 l/m 0 min 0 min 0,0 UV-I 0 W/m 10,3 km/h (2 Bft)
27.10.2013 02:34 16,4 C 14,4 C 87 % 1006,6 hPa 0,0 l/m 0 min 0 min 0,0 UV-I 0 W/m 10,3 km/h (2 Bft)
27.10.2013 02:36 16,4 C 14,4 C 87 % 1006,6 hPa 0,0 l/m 0 min 0 min 0,0 UV-I 0 W/m 10,3 km/h (2 Bft)
27.10.2013 02:38 16,4 C 14,4 C 87 % 1006,6 hPa 0,0 l/m 0 min 0 min 0,0 UV-I 0 W/m 12,9 km/h (3 Bft)
27.10.2013 02:40 16,3 C 14,4 C 87 % 1006,6 hPa 0,0 l/m 0 min 0 min 0,0 UV-I 0 W/m 15,4 km/h (3 Bft)
27.10.2013 02:42 16,3 C 14,4 C 87 % 1006,5 hPa 0,0 l/m 0 min 0 min 0,0 UV-I 0 W/m 12,9 km/h (3 Bft)
27.10.2013 02:44 16,3 C 14,4 C 87 % 1006,7 hPa 0,0 l/m 0 min 0 min 0,0 UV-I 0 W/m 15,4 km/h (3 Bft)
27.10.2013 02:46 16,4 C 14,4 C 86 % 1006,7 hPa 0,0 l/m 0 min 0 min 0,0 UV-I 0 W/m 15,4 km/h (3 Bft)
27.10.2013 02:48 16,3 C 14,4 C 86 % 1006,6 hPa 0,0 l/m 0 min 0 min 0,0 UV-I 0 W/m 7,7 km/h (2 Bft)
27.10.2013 02:50 16,3 C 14,4 C 86 % 1006,5 hPa 0,0 l/m 0 min 0 min 0,0 UV-I 0 W/m 12,9 km/h (3 Bft)
27.10.2013 02:52 16,3 C 14,4 C 86 % 1006,6 hPa 0,0 l/m 0 min 0 min 0,0 UV-I 0 W/m 20,6 km/h (4 Bft)
27.10.2013 02:54 16,3 C 14,4 C 86 % 1006,5 hPa 0,0 l/m 0 min 0 min 0,0 UV-I 0 W/m 7,7 km/h (2 Bft)
27.10.2013 02:56 16,3 C 14,4 C 86 % 1006,5 hPa 0,0 l/m 0 min 0 min 0,0 UV-I 0 W/m 12,9 km/h (3 Bft)
27.10.2013 02:58 16,3 C 14,4 C 86 % 1006,5 hPa 0,0 l/m 0 min 0 min 0,0 UV-I 0 W/m 23,2 km/h (4 Bft)
27.10.2013 03:00 16,3 C 14,4 C 86 % 1006,5 hPa 0,0 l/m 0 min 0 min 0,0 UV-I 0 W/m 12,9 km/h (3 Bft)
27.10.2013 03:02 16,3 C 14,4 C 86 % 1006,5 hPa 0,0 l/m 0 min 0 min 0,0 UV-I 0 W/m 10,3 km/h (2 Bft)
27.10.2013 03:06 16,3 C 14,4 C 86 % 1006,5 hPa 0,0 l/m 0 min 0 min 0,0 UV-I 0 W/m 18,0 km/h (3 Bft)
27.10.2013 03:08 16,3 C 14,4 C 85 % 1006,5 hPa 0,0 l/m 0 min 0 min 0,0 UV-I 0 W/m 18,0 km/h (3 Bft)
27.10.2013 03:10 16,4 C 14,4 C 85 % 1006,5 hPa 0,0 l/m 0 min 0 min 0,0 UV-I 0 W/m 15,4 km/h (3 Bft)
27.10.2013 03:12 16,4 C 14,4 C 85 % 1006,5 hPa 0,0 l/m 0 min 0 min 0,0 UV-I 0 W/m 18,0 km/h (3 Bft)
27.10.2013 03:14 16,4 C 14,4 C 85 % 1006,4 hPa 0,0 l/m 0 min 0 min 0,0 UV-I 0 W/m 10,3 km/h (2 Bft)
27.10.2013 03:16 16,4 C 14,4 C 84 % 1006,4 hPa 0,0 l/m 0 min 0 min 0,0 UV-I 0 W/m 5,1 km/h (1 Bft)
27.10.2013 03:18 16,4 C 14,4 C 84 % 1006,3 hPa 0,0 l/m 0 min 0 min 0,0 UV-I 0 W/m 12,9 km/h (3 Bft)
27.10.2013 03:20 16,3 C 14,4 C 85 % 1006,6 hPa 0,0 l/m 0 min 0 min 0,0 UV-I 0 W/m 23,2 km/h (4 Bft)
27.10.2013 03:22 16,4 C 14,4 C 84 % 1006,4 hPa 0,0 l/m 0 min 0 min 0,0 UV-I 0 W/m 23,2 km/h (4 Bft)
27.10.2013 03:24 16,4 C 14,4 C 84 % 1006,4 hPa 0,0 l/m 0 min 0 min 0,0 UV-I 0 W/m 20,6 km/h (4 Bft)
27.10.2013 03:26 16,4 C 14,4 C 84 % 1006,3 hPa 0,0 l/m 0 min 0 min 0,0 UV-I 0 W/m 25,7 km/h (4 Bft)
27.10.2013 03:28 16,4 C 14,4 C 84 % 1006,2 hPa 0,0 l/m 0 min 0 min 0,0 UV-I 0 W/m 12,9 km/h (3 Bft)
27.10.2013 03:30 16,4 C 14,4 C 84 % 1006,3 hPa 0,0 l/m 0 min 0 min 0,0 UV-I 0 W/m 10,3 km/h (2 Bft)
27.10.2013 03:32 16,4 C 14,4 C 84 % 1006,3 hPa 0,0 l/m 0 min 0 min 0,0 UV-I 0 W/m 15,4 km/h (3 Bft)
27.10.2013 03:34 16,4 C 14,4 C 84 % 1006,3 hPa 0,0 l/m 0 min 0 min 0,0 UV-I 0 W/m 23,2 km/h (4 Bft)
27.10.2013 03:36 16,4 C 14,4 C 84 % 1006,3 hPa 0,0 l/m 0 min 0 min 0,0 UV-I 0 W/m 5,1 km/h (1 Bft)
27.10.2013 03:38 16,4 C 14,4 C 84 % 1006,2 hPa 0,0 l/m 0 min 0 min 0,0 UV-I 0 W/m 10,3 km/h (2 Bft)
27.10.2013 03:40 16,3 C 14,4 C 84 % 1006,1 hPa 0,0 l/m 0 min 0 min 0,0 UV-I 0 W/m 12,9 km/h (3 Bft)
27.10.2013 03:42 16,3 C 14,4 C 84 % 1006,1 hPa 0,0 l/m 0 min 0 min 0,0 UV-I 0 W/m 12,9 km/h (3 Bft)
27.10.2013 03:44 16,3 C 14,4 C 84 % 1006,1 hPa 0,0 l/m 0 min 0 min 0,0 UV-I 0 W/m 10,3 km/h (2 Bft)
27.10.2013 03:46 16,3 C 14,4 C 84 % 1006,1 hPa 0,0 l/m 0 min 0 min 0,0 UV-I 0 W/m 15,4 km/h (3 Bft)
27.10.2013 03:48 16,3 C 14,4 C 84 % 1006,2 hPa 0,0 l/m 0 min 0 min 0,0 UV-I 0 W/m 12,9 km/h (3 Bft)
27.10.2013 03:50 16,3 C 14,4 C 84 % 1006,2 hPa 0,0 l/m 0 min 0 min 0,0 UV-I 0 W/m 20,6 km/h (4 Bft)
27.10.2013 03:52 16,3 C 14,4 C 84 % 1006,2 hPa 0,0 l/m 0 min 0 min 0,0 UV-I 0 W/m 18,0 km/h (3 Bft)
27.10.2013 03:54 16,3 C 14,4 C 84 % 1006,2 hPa 0,0 l/m 0 min 0 min 0,0 UV-I 0 W/m 12,9 km/h (3 Bft)
27.10.2013 03:56 16,3 C 14,4 C 84 % 1006,1 hPa 0,0 l/m 0 min 0 min 0,0 UV-I 0 W/m 25,7 km/h (4 Bft)
27.10.2013 03:58 16,3 C 14,4 C 84 % 1006,2 hPa 0,0 l/m 0 min 0 min 0,0 UV-I 0 W/m 12,9 km/h (3 Bft)
27.10.2013 04:00 16,2 C 14,4 C 84 % 1006,1 hPa 0,0 l/m 0 min 0 min 0,0 UV-I 0 W/m 18,0 km/h (3 Bft)
27.10.2013 04:02 16,2 C 14,4 C 84 % 1005,9 hPa 0,0 l/m 0 min 0 min 0,0 UV-I 0 W/m 15,4 km/h (3 Bft)
27.10.2013 04:06 16,2 C 14,4 C 84 % 1005,9 hPa 0,0 l/m 0 min 0 min 0,0 UV-I 0 W/m 28,3 km/h (4 Bft)
27.10.2013 04:08 16,2 C 14,4 C 84 % 1005,9 hPa 0,0 l/m 0 min 0 min 0,0 UV-I 0 W/m 20,6 km/h (4 Bft)
27.10.2013 04:10 16,1 C 13,9 C 84 % 1006,0 hPa 0,0 l/m 0 min 0 min 0,0 UV-I 0 W/m 10,3 km/h (2 Bft)
27.10.2013 04:12 16,1 C 13,9 C 84 % 1005,9 hPa 0,0 l/m 0 min 0 min 0,0 UV-I 0 W/m 12,9 km/h (3 Bft)
27.10.2013 04:14 16,1 C 13,9 C 84 % 1005,8 hPa 0,0 l/m 0 min 0 min 0,0 UV-I 0 W/m 15,4 km/h (3 Bft)
27.10.2013 04:16 16,1 C 13,9 C 84 % 1005,7 hPa 0,0 l/m 0 min 0 min 0,0 UV-I 0 W/m 15,4 km/h (3 Bft)
27.10.2013 04:18 16,1 C 13,9 C 84 % 1005,6 hPa 0,0 l/m 0 min 0 min 0,0 UV-I 0 W/m 33,5 km/h (5 Bft)
27.10.2013 04:20 16,1 C 13,9 C 84 % 1005,7 hPa 0,0 l/m 0 min 0 min 0,0 UV-I 0 W/m 18,0 km/h (3 Bft)
27.10.2013 04:22 16,1 C 14,4 C 84 % 1005,7 hPa 0,0 l/m 0 min 0 min 0,0 UV-I 0 W/m 10,3 km/h (2 Bft)
27.10.2013 04:24 16,1 C 13,9 C 84 % 1005,7 hPa 0,0 l/m 0 min 0 min 0,0 UV-I 0 W/m 10,3 km/h (2 Bft)
27.10.2013 04:26 16,0 C 13,9 C 84 % 1005,6 hPa 0,0 l/m 0 min 0 min 0,0 UV-I 0 W/m 15,4 km/h (3 Bft)
27.10.2013 04:28 16,0 C 13,9 C 84 % 1005,6 hPa 0,0 l/m 0 min 0 min 0,0 UV-I 0 W/m 12,9 km/h (3 Bft)
27.10.2013 04:30 15,9 C 13,9 C 84 % 1005,6 hPa 0,0 l/m 0 min 0 min 0,0 UV-I 0 W/m 10,3 km/h (2 Bft)
27.10.2013 04:32 15,9 C 13,9 C 84 % 1005,5 hPa 0,0 l/m 0 min 0 min 0,0 UV-I 0 W/m 10,3 km/h (2 Bft)
27.10.2013 04:34 15,9 C 13,9 C 84 % 1005,5 hPa 0,0 l/m 0 min 0 min 0,0 UV-I 0 W/m 2,6 km/h (1 Bft)
27.10.2013 04:36 15,8 C 13,9 C 84 % 1005,5 hPa 0,0 l/m 0 min 0 min 0,0 UV-I 0 W/m 7,7 km/h (2 Bft)
27.10.2013 04:38 15,8 C 13,9 C 84 % 1005,5 hPa 0,0 l/m 0 min 0 min 0,0 UV-I 0 W/m 18,0 km/h (3 Bft)
27.10.2013 04:40 15,7 C 13,9 C 84 % 1005,5 hPa 0,0 l/m 0 min 0 min 0,0 UV-I 0 W/m 5,1 km/h (1 Bft)
27.10.2013 04:42 15,7 C 13,9 C 85 % 1005,4 hPa 0,0 l/m 0 min 0 min 0,0 UV-I 0 W/m 18,0 km/h (3 Bft)
27.10.2013 04:44 15,7 C 13,9 C 85 % 1005,5 hPa 0,0 l/m 0 min 0 min 0,0 UV-I 0 W/m 12,9 km/h (3 Bft)
27.10.2013 04:46 15,7 C 13,9 C 85 % 1005,3 hPa 0,0 l/m 0 min 0 min 0,0 UV-I 0 W/m 18,0 km/h (3 Bft)
27.10.2013 04:48 15,7 C 13,9 C 85 % 1005,4 hPa 0,0 l/m 0 min 0 min 0,0 UV-I 0 W/m 15,4 km/h (3 Bft)
27.10.2013 04:50 15,7 C 13,9 C 84 % 1005,4 hPa 0,0 l/m 0 min 0 min 0,0 UV-I 0 W/m 15,4 km/h (3 Bft)
27.10.2013 04:52 15,7 C 13,9 C 84 % 1005,4 hPa 0,0 l/m 0 min 0 min 0,0 UV-I 0 W/m 15,4 km/h (3 Bft)
27.10.2013 04:54 15,7 C 13,9 C 84 % 1005,2 hPa 0,0 l/m 0 min 0 min 0,0 UV-I 0 W/m 12,9 km/h (3 Bft)
27.10.2013 04:56 15,7 C 13,9 C 84 % 1005,2 hPa 0,0 l/m 0 min 0 min 0,0 UV-I 0 W/m 25,7 km/h (4 Bft)
27.10.2013 04:58 15,7 C 13,9 C 84 % 1005,2 hPa 0,0 l/m 0 min 0 min 0,0 UV-I 0 W/m 25,7 km/h (4 Bft)
27.10.2013 05:00 15,7 C 13,9 C 84 % 1005,2 hPa 0,0 l/m 0 min 0 min 0,0 UV-I 0 W/m 15,4 km/h (3 Bft)
27.10.2013 05:02 15,7 C 13,9 C 84 % 1005,2 hPa 0,0 l/m 0 min 0 min 0,0 UV-I 0 W/m 12,9 km/h (3 Bft)
27.10.2013 05:06 15,7 C 13,9 C 84 % 1005,1 hPa 0,0 l/m 0 min 0 min 0,0 UV-I 0 W/m 18,0 km/h (3 Bft)
27.10.2013 05:08 15,6 C 13,9 C 84 % 1004,9 hPa 0,0 l/m 0 min 0 min 0,0 UV-I 0 W/m 15,4 km/h (3 Bft)
27.10.2013 05:10 15,6 C 13,3 C 84 % 1004,9 hPa 0,0 l/m 0 min 0 min 0,0 UV-I 0 W/m 5,1 km/h (1 Bft)
27.10.2013 05:12 15,5 C 13,3 C 84 % 1004,9 hPa 0,0 l/m 0 min 0 min 0,0 UV-I 0 W/m 12,9 km/h (3 Bft)
27.10.2013 05:14 15,4 C 13,3 C 84 % 1004,8 hPa 0,0 l/m 0 min 0 min 0,0 UV-I 0 W/m 12,9 km/h (3 Bft)
27.10.2013 05:16 15,4 C 13,3 C 84 % 1004,8 hPa 0,0 l/m 0 min 0 min 0,0 UV-I 0 W/m 20,6 km/h (4 Bft)
27.10.2013 05:18 15,4 C 13,3 C 84 % 1004,7 hPa 0,0 l/m 0 min 0 min 0,0 UV-I 0 W/m 12,9 km/h (3 Bft)
27.10.2013 05:20 15,4 C 13,3 C 84 % 1004,8 hPa 0,0 l/m 0 min 0 min 0,0 UV-I 0 W/m 18,0 km/h (3 Bft)
27.10.2013 05:22 15,3 C 13,3 C 84 % 1004,8 hPa 0,0 l/m 0 min 0 min 0,0 UV-I 0 W/m 10,3 km/h (2 Bft)
27.10.2013 05:24 15,3 C 13,3 C 84 % 1004,7 hPa 0,0 l/m 0 min 0 min 0,0 UV-I 0 W/m 12,9 km/h (3 Bft)
27.10.2013 05:26 15,3 C 13,3 C 84 % 1004,7 hPa 0,0 l/m 0 min 0 min 0,0 UV-I 0 W/m 23,2 km/h (4 Bft)
27.10.2013 05:28 15,3 C 13,3 C 84 % 1004,6 hPa 0,0 l/m 0 min 0 min 0,0 UV-I 0 W/m 10,3 km/h (2 Bft)
27.10.2013 05:30 15,3 C 13,3 C 83 % 1004,7 hPa 0,0 l/m 0 min 0 min 0,0 UV-I 0 W/m 18,0 km/h (3 Bft)
27.10.2013 05:32 15,3 C 13,3 C 83 % 1004,6 hPa 0,0 l/m 0 min 0 min 0,0 UV-I 0 W/m 20,6 km/h (4 Bft)
27.10.2013 05:34 15,3 C 13,3 C 83 % 1004,6 hPa 0,0 l/m 0 min 0 min 0,0 UV-I 0 W/m 20,6 km/h (4 Bft)
27.10.2013 05:36 15,4 C 13,3 C 83 % 1004,6 hPa 0,0 l/m 0 min 0 min 0,0 UV-I 0 W/m 18,0 km/h (3 Bft)
27.10.2013 05:38 15,4 C 13,9 C 83 % 1004,6 hPa 0,0 l/m 0 min 0 min 0,0 UV-I 0 W/m 25,7 km/h (4 Bft)
27.10.2013 05:40 15,4 C 13,3 C 83 % 1004,6 hPa 0,0 l/m 0 min 0 min 0,0 UV-I 0 W/m 18,0 km/h (3 Bft)
27.10.2013 05:42 15,4 C 13,3 C 83 % 1004,4 hPa 0,0 l/m 0 min 0 min 0,0 UV-I 0 W/m 7,7 km/h (2 Bft)
27.10.2013 05:44 15,3 C 13,3 C 83 % 1004,6 hPa 0,0 l/m 0 min 0 min 0,0 UV-I 0 W/m 18,0 km/h (3 Bft)
27.10.2013 05:46 15,3 C 13,3 C 83 % 1004,4 hPa 0,0 l/m 0 min 0 min 0,0 UV-I 0 W/m 23,2 km/h (4 Bft)
27.10.2013 05:48 15,3 C 13,3 C 83 % 1004,4 hPa 0,0 l/m 0 min 0 min 0,0 UV-I 0 W/m 25,7 km/h (4 Bft)
27.10.2013 05:50 15,3 C 13,3 C 83 % 1004,3 hPa 0,0 l/m 0 min 0 min 0,0 UV-I 0 W/m 25,7 km/h (4 Bft)
27.10.2013 05:52 15,3 C 13,3 C 83 % 1004,3 hPa 0,0 l/m 0 min 0 min 0,0 UV-I 0 W/m 18,0 km/h (3 Bft)
27.10.2013 05:54 15,4 C 13,3 C 83 % 1004,3 hPa 0,0 l/m 0 min 0 min 0,0 UV-I 0 W/m 12,9 km/h (3 Bft)
27.10.2013 05:56 15,3 C 13,3 C 83 % 1004,4 hPa 0,0 l/m 0 min 0 min 0,0 UV-I 0 W/m 12,9 km/h (3 Bft)
27.10.2013 05:58 15,3 C 13,3 C 82 % 1004,3 hPa 0,0 l/m 0 min 0 min 0,0 UV-I 0 W/m 7,7 km/h (2 Bft)
27.10.2013 06:00 15,3 C 13,3 C 82 % 1004,3 hPa 0,0 l/m 0 min 0 min 0,0 UV-I 0 W/m 15,4 km/h (3 Bft)
27.10.2013 06:02 15,3 C 13,3 C 83 % 1004,2 hPa 0,0 l/m 0 min 0 min 0,0 UV-I 0 W/m 28,3 km/h (4 Bft)
27.10.2013 06:06 15,3 C 13,3 C 82 % 1004,0 hPa 0,0 l/m 0 min 0 min 0,0 UV-I 0 W/m 18,0 km/h (3 Bft)
27.10.2013 06:08 15,3 C 13,3 C 82 % 1004,1 hPa 0,0 l/m 0 min 0 min 0,0 UV-I 0 W/m 20,6 km/h (4 Bft)
27.10.2013 06:10 15,3 C 13,3 C 82 % 1004,1 hPa 0,0 l/m 0 min 0 min 0,0 UV-I 0 W/m 18,0 km/h (3 Bft)
27.10.2013 06:12 15,3 C 13,3 C 82 % 1004,2 hPa 0,0 l/m 0 min 0 min 0,0 UV-I 0 W/m 20,6 km/h (4 Bft)
27.10.2013 06:14 15,3 C 13,3 C 82 % 1004,1 hPa 0,0 l/m 0 min 0 min 0,0 UV-I 0 W/m 12,9 km/h (3 Bft)
27.10.2013 06:16 15,3 C 13,3 C 82 % 1004,2 hPa 0,0 l/m 0 min 0 min 0,0 UV-I 0 W/m 10,3 km/h (2 Bft)
27.10.2013 06:18 15,3 C 13,3 C 82 % 1004,0 hPa 0,0 l/m 0 min 0 min 0,0 UV-I 0 W/m 15,4 km/h (3 Bft)
27.10.2013 06:20 15,3 C 13,3 C 82 % 1004,1 hPa 0,0 l/m 0 min 0 min 0,0 UV-I 0 W/m 33,5 km/h (5 Bft)
27.10.2013 06:22 15,2 C 13,3 C 81 % 1004,1 hPa 0,0 l/m 0 min 0 min 0,0 UV-I 0 W/m 7,7 km/h (2 Bft)
27.10.2013 06:24 15,2 C 13,3 C 81 % 1004,0 hPa 0,0 l/m 0 min 0 min 0,0 UV-I 0 W/m 12,9 km/h (3 Bft)
27.10.2013 06:26 15,2 C 13,3 C 82 % 1004,0 hPa 0,0 l/m 0 min 0 min 0,0 UV-I 0 W/m 20,6 km/h (4 Bft)
27.10.2013 06:28 15,2 C 13,3 C 82 % 1004,0 hPa 0,0 l/m 0 min 0 min 0,0 UV-I 0 W/m 10,3 km/h (2 Bft)
27.10.2013 06:30 15,2 C 13,3 C 81 % 1003,9 hPa 0,0 l/m 0 min 0 min 0,0 UV-I 0 W/m 15,4 km/h (3 Bft)
27.10.2013 06:32 15,2 C 13,3 C 81 % 1003,9 hPa 0,0 l/m 0 min 0 min 0,0 UV-I 0 W/m 7,7 km/h (2 Bft)
27.10.2013 06:34 15,1 C 13,3 C 82 % 1003,9 hPa 0,0 l/m 0 min 0 min 0,0 UV-I 0 W/m 18,0 km/h (3 Bft)
27.10.2013 06:36 15,1 C 13,3 C 82 % 1003,8 hPa 0,0 l/m 0 min 0 min 0,0 UV-I 0 W/m 12,9 km/h (3 Bft)
27.10.2013 06:38 15,1 C 12,8 C 82 % 1003,8 hPa 0,0 l/m 0 min 0 min 0,0 UV-I 0 W/m 12,9 km/h (3 Bft)
27.10.2013 06:40 15,1 C 13,3 C 81 % 1003,9 hPa 0,0 l/m 0 min 0 min 0,0 UV-I 0 W/m 28,3 km/h (4 Bft)
27.10.2013 06:42 15,1 C 13,3 C 81 % 1003,8 hPa 0,0 l/m 0 min 0 min 0,0 UV-I 0 W/m 12,9 km/h (3 Bft)
27.10.2013 06:44 15,1 C 13,3 C 81 % 1003,9 hPa 0,0 l/m 0 min 0 min 0,0 UV-I 0 W/m 28,3 km/h (4 Bft)
27.10.2013 06:46 15,1 C 13,3 C 81 % 1003,9 hPa 0,0 l/m 0 min 0 min 0,0 UV-I 0 W/m 23,2 km/h (4 Bft)
27.10.2013 06:48 15,1 C 13,3 C 81 % 1003,7 hPa 0,0 l/m 0 min 0 min 0,0 UV-I 0 W/m 10,3 km/h (2 Bft)
27.10.2013 06:50 15,1 C 13,3 C 81 % 1003,8 hPa 0,0 l/m 0 min 0 min 0,0 UV-I 0 W/m 15,4 km/h (3 Bft)
27.10.2013 06:52 15,1 C 13,3 C 80 % 1003,7 hPa 0,0 l/m 0 min 0 min 0,0 UV-I 0 W/m 25,7 km/h (4 Bft)
27.10.2013 06:54 15,2 C 13,3 C 80 % 1003,6 hPa 0,0 l/m 0 min 0 min 0,0 UV-I 0 W/m 23,2 km/h (4 Bft)
27.10.2013 06:56 15,1 C 13,3 C 80 % 1003,7 hPa 0,0 l/m 0 min 0 min 0,0 UV-I 0 W/m 28,3 km/h (4 Bft)
27.10.2013 06:58 15,1 C 13,3 C 80 % 1003,6 hPa 0,0 l/m 0 min 0 min 0,0 UV-I 0 W/m 20,6 km/h (4 Bft)
27.10.2013 07:00 15,1 C 13,3 C 80 % 1003,6 hPa 0,0 l/m 0 min 0 min 0,0 UV-I 0 W/m 15,4 km/h (3 Bft)
27.10.2013 07:02 15,1 C 13,3 C 80 % 1003,6 hPa 0,0 l/m 0 min 0 min 0,0 UV-I 0 W/m 18,0 km/h (3 Bft)
27.10.2013 07:06 15,1 C 13,3 C 80 % 1003,5 hPa 0,0 l/m 0 min 0 min 0,0 UV-I 0 W/m 18,0 km/h (3 Bft)
27.10.2013 07:08 15,0 C 13,3 C 80 % 1003,5 hPa 0,0 l/m 0 min 0 min 0,0 UV-I 0 W/m 15,4 km/h (3 Bft)
27.10.2013 07:10 15,0 C 13,3 C 80 % 1003,5 hPa 0,0 l/m 0 min 0 min 0,0 UV-I 0 W/m 20,6 km/h (4 Bft)
27.10.2013 07:12 15,0 C 13,3 C 80 % 1003,5 hPa 0,0 l/m 0 min 0 min 0,0 UV-I 0 W/m 12,9 km/h (3 Bft)
27.10.2013 07:14 15,0 C 13,3 C 80 % 1003,6 hPa 0,0 l/m 0 min 0 min 0,0 UV-I 0 W/m 20,6 km/h (4 Bft)
27.10.2013 07:16 15,0 C 13,3 C 79 % 1003,5 hPa 0,0 l/m 0 min 0 min 0,0 UV-I 5 W/m 28,3 km/h (4 Bft)
27.10.2013 07:18 15,0 C 13,3 C 79 % 1003,4 hPa 0,0 l/m 0 min 0 min 0,0 UV-I 5 W/m 10,3 km/h (2 Bft)
27.10.2013 07:20 14,9 C 13,3 C 79 % 1003,5 hPa 0,0 l/m 0 min 0 min 0,0 UV-I 7 W/m 23,2 km/h (4 Bft)
27.10.2013 07:22 15,0 C 13,3 C 79 % 1003,4 hPa 0,0 l/m 0 min 0 min 0,0 UV-I 7 W/m 20,6 km/h (4 Bft)
27.10.2013 07:24 14,9 C 13,3 C 79 % 1003,4 hPa 0,0 l/m 0 min 0 min 0,0 UV-I 7 W/m 20,6 km/h (4 Bft)
27.10.2013 07:26 15,0 C 13,3 C 79 % 1003,4 hPa 0,0 l/m 0 min 0 min 0,0 UV-I 9 W/m 25,7 km/h (4 Bft)
27.10.2013 07:28 15,0 C 13,3 C 79 % 1003,3 hPa 0,0 l/m 0 min 0 min 0,0 UV-I 11 W/m 18,0 km/h (3 Bft)
27.10.2013 07:30 15,0 C 13,3 C 79 % 1003,4 hPa 0,0 l/m 0 min 0 min 0,0 UV-I 12 W/m 18,0 km/h (3 Bft)
27.10.2013 07:32 14,9 C 13,3 C 79 % 1003,3 hPa 0,0 l/m 0 min 0 min 0,0 UV-I 19 W/m 23,2 km/h (4 Bft)
27.10.2013 07:34 14,9 C 13,3 C 79 % 1003,4 hPa 0,0 l/m 0 min 0 min 0,0 UV-I 23 W/m 15,4 km/h (3 Bft)
27.10.2013 07:36 15,0 C 13,3 C 79 % 1003,4 hPa 0,0 l/m 0 min 0 min 0,0 UV-I 28 W/m 12,9 km/h (3 Bft)
27.10.2013 07:38 15,0 C 13,3 C 79 % 1003,3 hPa 0,0 l/m 2 min 0 min 0,0 UV-I 30 W/m 20,6 km/h (4 Bft)
27.10.2013 07:40 15,1 C 13,3 C 79 % 1003,3 hPa 0,0 l/m 0 min 0 min 0,0 UV-I 26 W/m 12,9 km/h (3 Bft)
27.10.2013 07:42 15,1 C 13,3 C 79 % 1003,3 hPa 0,0 l/m 0 min 0 min 0,0 UV-I 25 W/m 18,0 km/h (3 Bft)
27.10.2013 07:44 15,1 C 13,3 C 79 % 1003,3 hPa 0,0 l/m 0 min 0 min 0,0 UV-I 21 W/m 20,6 km/h (4 Bft)
27.10.2013 07:46 15,1 C 13,3 C 79 % 1003,2 hPa 0,0 l/m 0 min 0 min 0,0 UV-I 21 W/m 23,2 km/h (4 Bft)
27.10.2013 07:48 15,2 C 13,3 C 78 % 1003,0 hPa 0,0 l/m 0 min 0 min 0,0 UV-I 19 W/m 28,3 km/h (4 Bft)
27.10.2013 07:50 15,2 C 13,3 C 78 % 1003,1 hPa 0,0 l/m 0 min 0 min 0,0 UV-I 19 W/m 18,0 km/h (3 Bft)
27.10.2013 07:52 15,2 C 13,3 C 78 % 1003,0 hPa 0,0 l/m 0 min 0 min 0,0 UV-I 21 W/m 23,2 km/h (4 Bft)
27.10.2013 07:54 15,2 C 13,3 C 78 % 1003,0 hPa 0,0 l/m 0 min 0 min 0,0 UV-I 19 W/m 20,6 km/h (4 Bft)
27.10.2013 07:56 15,2 C 13,3 C 78 % 1002,9 hPa 0,0 l/m 0 min 0 min 0,0 UV-I 21 W/m 20,6 km/h (4 Bft)
27.10.2013 07:58 15,3 C 13,3 C 78 % 1002,9 hPa 0,0 l/m 0 min 0 min 0,0 UV-I 21 W/m 28,3 km/h (4 Bft)
27.10.2013 08:00 15,3 C 13,3 C 78 % 1002,8 hPa 0,0 l/m 0 min 0 min 0,0 UV-I 26 W/m 25,7 km/h (4 Bft)
27.10.2013 08:02 15,3 C 13,3 C 78 % 1002,8 hPa 0,0 l/m 0 min 0 min 0,0 UV-I 35 W/m 18,0 km/h (3 Bft)
27.10.2013 08:06 15,3 C 13,9 C 78 % 1002,9 hPa 0,0 l/m 0 min 0 min 0,0 UV-I 30 W/m 23,2 km/h (4 Bft)
27.10.2013 08:08 15,3 C 13,3 C 78 % 1002,8 hPa 0,0 l/m 0 min 0 min 0,0 UV-I 30 W/m 18,0 km/h (3 Bft)
27.10.2013 08:10 15,3 C 13,3 C 78 % 1002,7 hPa 0,0 l/m 0 min 0 min 0,0 UV-I 30 W/m 12,9 km/h (3 Bft)
27.10.2013 08:12 15,3 C 13,9 C 78 % 1002,8 hPa 0,0 l/m 0 min 0 min 0,0 UV-I 26 W/m 18,0 km/h (3 Bft)
27.10.2013 08:14 15,3 C 13,9 C 78 % 1002,7 hPa 0,0 l/m 0 min 0 min 0,0 UV-I 25 W/m 20,6 km/h (4 Bft)
27.10.2013 08:16 15,3 C 13,9 C 78 % 1002,6 hPa 0,0 l/m 0 min 0 min 0,0 UV-I 28 W/m 30,9 km/h (5 Bft)
27.10.2013 08:18 15,4 C 13,9 C 78 % 1002,7 hPa 0,0 l/m 0 min 0 min 0,0 UV-I 30 W/m 20,6 km/h (4 Bft)
27.10.2013 08:20 15,4 C 13,9 C 78 % 1002,6 hPa 0,0 l/m 0 min 0 min 0,0 UV-I 30 W/m 20,6 km/h (4 Bft)
27.10.2013 08:22 15,4 C 13,9 C 78 % 1002,5 hPa 0,0 l/m 0 min 0 min 0,0 UV-I 33 W/m 25,7 km/h (4 Bft)
27.10.2013 08:24 15,4 C 13,9 C 78 % 1002,5 hPa 0,0 l/m 0 min 0 min 0,0 UV-I 40 W/m 23,2 km/h (4 Bft)
27.10.2013 08:26 15,4 C 13,9 C 78 % 1002,4 hPa 0,0 l/m 0 min 0 min 0,0 UV-I 44 W/m 18,0 km/h (3 Bft)
27.10.2013 08:28 15,4 C 13,9 C 78 % 1002,4 hPa 0,0 l/m 0 min 0 min 0,0 UV-I 60 W/m 18,0 km/h (3 Bft)
27.10.2013 08:30 15,5 C 13,9 C 78 % 1002,4 hPa 0,0 l/m 0 min 0 min 0,0 UV-I 76 W/m 20,6 km/h (4 Bft)
27.10.2013 08:32 15,6 C 13,9 C 78 % 1002,4 hPa 0,0 l/m 0 min 0 min 0,0 UV-I 58 W/m 25,7 km/h (4 Bft)
27.10.2013 08:34 15,6 C 13,9 C 78 % 1002,3 hPa 0,0 l/m 0 min 0 min 0,0 UV-I 35 W/m 18,0 km/h (3 Bft)
27.10.2013 08:36 15,6 C 13,9 C 78 % 1002,4 hPa 0,0 l/m 0 min 0 min 0,0 UV-I 30 W/m 20,6 km/h (4 Bft)
27.10.2013 08:38 15,6 C 13,9 C 78 % 1002,5 hPa 0,0 l/m 0 min 0 min 0,0 UV-I 35 W/m 15,4 km/h (3 Bft)
27.10.2013 08:40 15,6 C 13,9 C 78 % 1002,2 hPa 0,0 l/m 0 min 2 min 0,0 UV-I 35 W/m 18,0 km/h (3 Bft)
27.10.2013 08:42 15,6 C 13,9 C 78 % 1002,4 hPa 0,0 l/m 0 min 0 min 0,0 UV-I 28 W/m 25,7 km/h (4 Bft)
27.10.2013 08:44 15,7 C 13,9 C 78 % 1002,2 hPa 0,0 l/m 0 min 0 min 0,0 UV-I 25 W/m 20,6 km/h (4 Bft)
27.10.2013 08:46 15,7 C 13,9 C 78 % 1002,2 hPa 0,0 l/m 0 min 0 min 0,0 UV-I 21 W/m 18,0 km/h (3 Bft)
27.10.2013 08:48 15,7 C 13,9 C 78 % 1002,2 hPa 0,0 l/m 0 min 0 min 0,0 UV-I 30 W/m 12,9 km/h (3 Bft)
27.10.2013 08:50 15,7 C 13,9 C 78 % 1002,0 hPa 0,0 l/m 0 min 0 min 0,0 UV-I 49 W/m 18,0 km/h (3 Bft)
27.10.2013 08:52 15,7 C 13,9 C 78 % 1002,0 hPa 0,0 l/m 0 min 0 min 0,0 UV-I 42 W/m 20,6 km/h (4 Bft)
27.10.2013 08:54 15,7 C 14,4 C 78 % 1002,0 hPa 0,0 l/m 0 min 0 min 0,0 UV-I 44 W/m 23,2 km/h (4 Bft)
27.10.2013 08:56 15,8 C 14,4 C 78 % 1002,0 hPa 0,0 l/m 0 min 0 min 0,0 UV-I 49 W/m 18,0 km/h (3 Bft)
27.10.2013 08:58 15,8 C 13,9 C 78 % 1002,1 hPa 0,0 l/m 0 min 2 min 0,0 UV-I 46 W/m 23,2 km/h (4 Bft)
27.10.2013 09:00 15,9 C 13,9 C 78 % 1002,1 hPa 0,0 l/m 0 min 2 min 0,0 UV-I 25 W/m 25,7 km/h (4 Bft)
27.10.2013 09:02 15,8 C 12,8 C 79 % 1002,1 hPa 0,0 l/m 0 min 2 min 0,0 UV-I 25 W/m 23,2 km/h (4 Bft)
27.10.2013 09:06 15,7 C 12,2 C 81 % 1002,1 hPa 0,2 l/m 0 min 2 min 0,0 UV-I 26 W/m 30,9 km/h (5 Bft)
27.10.2013 09:08 15,6 C 12,2 C 81 % 1002,0 hPa 0,0 l/m 0 min 2 min 0,0 UV-I 28 W/m 20,6 km/h (4 Bft)
27.10.2013 09:10 15,4 C 12,2 C 82 % 1002,0 hPa 0,0 l/m 0 min 2 min 0,0 UV-I 25 W/m 18,0 km/h (3 Bft)
27.10.2013 09:12 15,4 C 12,2 C 83 % 1002,0 hPa 0,0 l/m 0 min 0 min 0,0 UV-I 35 W/m 28,3 km/h (4 Bft)
27.10.2013 09:14 15,3 C 12,8 C 83 % 1001,9 hPa 0,0 l/m 0 min 0 min 0,0 UV-I 35 W/m 20,6 km/h (4 Bft)
27.10.2013 09:16 15,3 C 12,8 C 83 % 1001,9 hPa 0,0 l/m 0 min 0 min 0,0 UV-I 21 W/m 28,3 km/h (4 Bft)
27.10.2013 09:18 15,3 C 12,8 C 83 % 1002,0 hPa 0,0 l/m 0 min 0 min 0,0 UV-I 18 W/m 15,4 km/h (3 Bft)
27.10.2013 09:20 15,4 C 12,8 C 83 % 1001,8 hPa 0,0 l/m 0 min 0 min 0,0 UV-I 26 W/m 20,6 km/h (4 Bft)
27.10.2013 09:22 15,4 C 12,8 C 83 % 1001,9 hPa 0,0 l/m 0 min 0 min 0,0 UV-I 26 W/m 15,4 km/h (3 Bft)
27.10.2013 09:24 15,4 C 13,3 C 83 % 1001,8 hPa 0,0 l/m 0 min 0 min 0,0 UV-I 19 W/m 20,6 km/h (4 Bft)
27.10.2013 09:26 15,4 C 13,3 C 83 % 1001,7 hPa 0,0 l/m 0 min 0 min 0,0 UV-I 12 W/m 10,3 km/h (2 Bft)
27.10.2013 09:28 15,5 C 13,3 C 82 % 1001,7 hPa 0,0 l/m 0 min 0 min 0,0 UV-I 11 W/m 18,0 km/h (3 Bft)
27.10.2013 09:30 15,6 C 13,9 C 82 % 1001,9 hPa 0,0 l/m 0 min 0 min 0,0 UV-I 14 W/m 23,2 km/h (4 Bft)
27.10.2013 09:32 15,6 C 13,9 C 81 % 1001,8 hPa 0,0 l/m 0 min 0 min 0,0 UV-I 21 W/m 54,1 km/h (7 Bft)
27.10.2013 09:34 15,7 C 13,9 C 81 % 1001,7 hPa 0,0 l/m 0 min 0 min 0,0 UV-I 32 W/m 61,9 km/h (7 Bft)
27.10.2013 09:36 15,8 C 14,4 C 81 % 1001,8 hPa 0,0 l/m 0 min 0 min 0,0 UV-I 40 W/m 30,9 km/h (5 Bft)
27.10.2013 09:38 15,9 C 14,4 C 80 % 1001,7 hPa 0,0 l/m 0 min 0 min 0,0 UV-I 42 W/m 41,2 km/h (6 Bft)
27.10.2013 09:40 16,0 C 14,4 C 80 % 1001,8 hPa 0,0 l/m 0 min 0 min 0,0 UV-I 39 W/m 23,2 km/h (4 Bft)
27.10.2013 09:42 16,1 C 14,4 C 80 % 1001,7 hPa 0,0 l/m 0 min 0 min 0,0 UV-I 53 W/m 28,3 km/h (4 Bft)
27.10.2013 09:44 16,1 C 14,4 C 80 % 1001,9 hPa 0,0 l/m 0 min 2 min 0,0 UV-I 51 W/m 28,3 km/h (4 Bft)
27.10.2013 09:46 16,2 C 14,4 C 80 % 1001,9 hPa 0,0 l/m 0 min 2 min 0,0 UV-I 42 W/m 33,5 km/h (5 Bft)
27.10.2013 09:48 16,2 C 14,4 C 79 % 1001,8 hPa 0,0 l/m 0 min 0 min 0,0 UV-I 47 W/m 48,9 km/h (6 Bft)
27.10.2013 09:50 16,2 C 14,4 C 79 % 1001,8 hPa 0,0 l/m 0 min 2 min 0,0 UV-I 44 W/m 41,2 km/h (6 Bft)
27.10.2013 09:52 16,2 C 14,4 C 79 % 1001,9 hPa 0,0 l/m 0 min 0 min 0,0 UV-I 37 W/m 36,0 km/h (5 Bft)
27.10.2013 09:54 16,2 C 14,4 C 79 % 1001,9 hPa 0,0 l/m 0 min 0 min 0,0 UV-I 42 W/m 38,6 km/h (5 Bft)
27.10.2013 09:56 16,3 C 14,4 C 79 % 1002,4 hPa 0,0 l/m 0 min 2 min 0,0 UV-I 47 W/m 33,5 km/h (5 Bft)
27.10.2013 09:58 16,2 C 13,3 C 80 % 1001,7 hPa 0,0 l/m 0 min 2 min 0,0 UV-I 42 W/m 33,5 km/h (5 Bft)
27.10.2013 10:00 16,2 C 12,8 C 81 % 1001,7 hPa 0,0 l/m 0 min 2 min 0,0 UV-I 40 W/m 23,2 km/h (4 Bft)
27.10.2013 10:02 16,1 C 12,8 C 81 % 1002,3 hPa 0,0 l/m 0 min 2 min 0,0 UV-I 42 W/m 43,8 km/h (6 Bft)
27.10.2013 10:06 15,8 C 12,8 C 82 % 1001,8 hPa 0,0 l/m 0 min 2 min 0,0 UV-I 72 W/m 36,0 km/h (5 Bft)
27.10.2013 10:08 15,7 C 12,8 C 83 % 1001,7 hPa 0,0 l/m 0 min 2 min 0,0 UV-I 79 W/m 48,9 km/h (6 Bft)
27.10.2013 10:10 15,6 C 12,8 C 83 % 1001,8 hPa 0,0 l/m 0 min 2 min 0,0 UV-I 76 W/m 36,0 km/h (5 Bft)
27.10.2013 10:12 15,6 C 12,8 C 83 % 1001,7 hPa 0,0 l/m 0 min 2 min 0,0 UV-I 95 W/m 20,6 km/h (4 Bft)
27.10.2013 10:14 15,6 C 12,8 C 84 % 1001,8 hPa 0,0 l/m 0 min 2 min 0,0 UV-I 111 W/m 30,9 km/h (5 Bft)
27.10.2013 10:16 15,6 C 12,8 C 83 % 1001,7 hPa 0,0 l/m 0 min 2 min 0,0 UV-I 120 W/m 51,5 km/h (7 Bft)
27.10.2013 10:18 15,7 C 13,3 C 83 % 1001,7 hPa 0,0 l/m 0 min 2 min 0,0 UV-I 114 W/m 38,6 km/h (5 Bft)
27.10.2013 10:20 15,7 C 13,3 C 82 % 1001,5 hPa 0,0 l/m 0 min 2 min 0,0 UV-I 104 W/m 61,8 km/h (7 Bft)
27.10.2013 10:22 15,8 C 13,9 C 82 % 1001,5 hPa 0,0 l/m 0 min 2 min 0,0 UV-I 123 W/m 28,3 km/h (4 Bft)
27.10.2013 10:24 15,9 C 13,9 C 81 % 1001,3 hPa 0,0 l/m 0 min 2 min 0,0 UV-I 105 W/m 25,7 km/h (4 Bft)
27.10.2013 10:26 16,0 C 14,4 C 81 % 1001,2 hPa 0,0 l/m 0 min 2 min 0,0 UV-I 72 W/m 33,5 km/h (5 Bft)
27.10.2013 10:28 16,0 C 14,4 C 80 % 1001,0 hPa 0,0 l/m 0 min 2 min 0,0 UV-I 63 W/m 46,3 km/h (6 Bft)
27.10.2013 10:30 16,1 C 14,4 C 80 % 1001,2 hPa 0,0 l/m 0 min 2 min 0,0 UV-I 132 W/m 30,9 km/h (5 Bft)
27.10.2013 10:32 16,1 C 14,4 C 80 % 1001,4 hPa 0,0 l/m 0 min 2 min 0,0 UV-I 132 W/m 54,1 km/h (7 Bft)
27.10.2013 10:34 16,3 C 15,0 C 79 % 1001,2 hPa 0,0 l/m 0 min 2 min 0,5 UV-I 132 W/m 46,3 km/h (6 Bft)
27.10.2013 10:36 16,4 C 15,0 C 79 % 1001,5 hPa 0,0 l/m 2 min 2 min 0,5 UV-I 320 W/m 43,8 km/h (6 Bft)
27.10.2013 10:38 16,4 C 15,0 C 78 % 1001,1 hPa 0,0 l/m 2 min 2 min 0,0 UV-I 320 W/m 36,0 km/h (5 Bft)
27.10.2013 10:40 16,6 C 15,0 C 77 % 1001,2 hPa 0,0 l/m 2 min 0 min 0,0 UV-I 320 W/m 43,8 km/h (6 Bft)
27.10.2013 10:42 16,6 C 15,0 C 77 % 1001,3 hPa 0,0 l/m 2 min 0 min 0,5 UV-I 320 W/m 28,3 km/h (4 Bft)
27.10.2013 10:44 16,8 C 15,0 C 77 % 1001,3 hPa 0,0 l/m 2 min 0 min 0,5 UV-I 431 W/m 36,0 km/h (5 Bft)
27.10.2013 10:46 16,9 C 15,0 C 76 % 1001,3 hPa 0,0 l/m 2 min 0 min 0,0 UV-I 417 W/m 41,2 km/h (6 Bft)
27.10.2013 10:48 16,9 C 15,0 C 76 % 1001,4 hPa 0,0 l/m 0 min 0 min 0,0 UV-I 100 W/m 28,3 km/h (4 Bft)
27.10.2013 10:50 16,8 C 15,0 C 75 % 1001,5 hPa 0,0 l/m 0 min 0 min 0,0 UV-I 102 W/m 43,8 km/h (6 Bft)
27.10.2013 10:52 16,8 C 15,0 C 75 % 1001,3 hPa 0,0 l/m 0 min 0 min 0,6 UV-I 125 W/m 41,2 km/h (6 Bft)
27.10.2013 10:54 16,9 C 15,0 C 75 % 1001,4 hPa 0,0 l/m 0 min 0 min 0,0 UV-I 125 W/m 28,3 km/h (4 Bft)
27.10.2013 10:56 16,9 C 15,0 C 75 % 1001,5 hPa 0,0 l/m 0 min 0 min 0,0 UV-I 93 W/m 56,6 km/h (7 Bft)
27.10.2013 10:58 16,9 C 15,0 C 75 % 1001,4 hPa 0,0 l/m 2 min 0 min 0,0 UV-I 334 W/m 54,1 km/h (7 Bft)
27.10.2013 11:00 16,9 C 15,0 C 75 % 1001,6 hPa 0,0 l/m 2 min 0 min 0,7 UV-I 334 W/m 20,6 km/h (4 Bft)
27.10.2013 11:02 17,0 C 15,0 C 75 % 1001,8 hPa 0,0 l/m 2 min 0 min 0,7 UV-I 334 W/m 46,3 km/h (6 Bft)
27.10.2013 11:06 17,1 C 15,6 C 75 % 1001,7 hPa 0,0 l/m 2 min 0 min 0,8 UV-I 494 W/m 46,3 km/h (6 Bft)
27.10.2013 11:08 17,2 C 16,1 C 74 % 1001,8 hPa 0,0 l/m 2 min 0 min 0,5 UV-I 533 W/m 36,0 km/h (5 Bft)
27.10.2013 11:10 17,3 C 16,1 C 74 % 1001,7 hPa 0,0 l/m 0 min 0 min 0,0 UV-I 202 W/m 28,3 km/h (4 Bft)
27.10.2013 11:12 17,3 C 15,6 C 73 % 1001,6 hPa 0,0 l/m 0 min 0 min 0,0 UV-I 144 W/m 28,3 km/h (4 Bft)
27.10.2013 11:14 17,2 C 15,6 C 74 % 1001,6 hPa 0,0 l/m 0 min 0 min 0,0 UV-I 148 W/m 36,0 km/h (5 Bft)
27.10.2013 11:16 17,1 C 15,6 C 74 % 1001,7 hPa 0,0 l/m 0 min 0 min 0,0 UV-I 186 W/m 23,2 km/h (4 Bft)
27.10.2013 11:18 17,1 C 15,6 C 73 % 1002,0 hPa 0,0 l/m 0 min 0 min 0,0 UV-I 146 W/m 51,5 km/h (7 Bft)
27.10.2013 11:20 17,0 C 15,6 C 73 % 1001,7 hPa 0,0 l/m 0 min 0 min 0,0 UV-I 139 W/m 30,9 km/h (5 Bft)
27.10.2013 11:22 16,9 C 15,6 C 73 % 1001,6 hPa 0,0 l/m 0 min 0 min 0,0 UV-I 114 W/m 28,3 km/h (4 Bft)
27.10.2013 11:24 16,9 C 15,6 C 73 % 1001,7 hPa 0,0 l/m 0 min 0 min 0,0 UV-I 135 W/m 43,8 km/h (6 Bft)
27.10.2013 11:26 16,9 C 15,0 C 72 % 1002,0 hPa 0,0 l/m 0 min 0 min 0,0 UV-I 70 W/m 54,1 km/h (7 Bft)
27.10.2013 11:28 16,8 C 15,0 C 73 % 1001,8 hPa 0,0 l/m 0 min 0 min 0,0 UV-I 60 W/m 28,3 km/h (4 Bft)
27.10.2013 11:30 16,8 C 15,0 C 73 % 1001,8 hPa 0,0 l/m 0 min 0 min 0,0 UV-I 77 W/m 48,9 km/h (6 Bft)
27.10.2013 11:32 16,7 C 15,0 C 73 % 1001,8 hPa 0,0 l/m 0 min 0 min 0,0 UV-I 83 W/m 43,8 km/h (6 Bft)
27.10.2013 11:34 16,7 C 15,0 C 73 % 1002,0 hPa 0,0 l/m 0 min 0 min 0,0 UV-I 91 W/m 23,2 km/h (4 Bft)
27.10.2013 11:36 16,7 C 15,0 C 72 % 1001,8 hPa 0,0 l/m 0 min 0 min 0,0 UV-I 97 W/m 36,0 km/h (5 Bft)
27.10.2013 11:38 16,7 C 15,0 C 73 % 1001,8 hPa 0,0 l/m 0 min 0 min 0,0 UV-I 127 W/m 25,7 km/h (4 Bft)
27.10.2013 11:40 16,7 C 15,0 C 73 % 1002,2 hPa 0,0 l/m 0 min 0 min 0,0 UV-I 111 W/m 28,3 km/h (4 Bft)
27.10.2013 11:42 16,7 C 15,0 C 73 % 1001,8 hPa 0,0 l/m 0 min 0 min 0,0 UV-I 107 W/m 38,6 km/h (5 Bft)
27.10.2013 11:44 16,6 C 15,0 C 73 % 1001,9 hPa 0,0 l/m 0 min 0 min 0,0 UV-I 118 W/m 46,3 km/h (6 Bft)
27.10.2013 11:46 16,6 C 15,0 C 74 % 1001,8 hPa 0,0 l/m 0 min 2 min 0,0 UV-I 137 W/m 28,3 km/h (4 Bft)
27.10.2013 11:48 16,5 C 14,4 C 74 % 1001,8 hPa 0,0 l/m 0 min 2 min 0,0 UV-I 172 W/m 38,6 km/h (5 Bft)
27.10.2013 11:50 16,4 C 15,0 C 75 % 1001,7 hPa 0,0 l/m 0 min 2 min 0,0 UV-I 225 W/m 15,4 km/h (3 Bft)
27.10.2013 11:52 16,3 C 15,0 C 75 % 1001,6 hPa 0,0 l/m 0 min 0 min 0,0 UV-I 234 W/m 18,0 km/h (3 Bft)
27.10.2013 11:54 16,3 C 15,0 C 76 % 1001,6 hPa 0,0 l/m 0 min 0 min 0,0 UV-I 209 W/m 28,3 km/h (4 Bft)
27.10.2013 11:56 16,3 C 15,0 C 76 % 1001,4 hPa 0,0 l/m 0 min 0 min 0,0 UV-I 172 W/m 20,6 km/h (4 Bft)
27.10.2013 11:58 16,3 C 15,0 C 76 % 1001,5 hPa 0,0 l/m 0 min 0 min 0,0 UV-I 181 W/m 30,9 km/h (5 Bft)
27.10.2013 12:00 16,3 C 15,6 C 77 % 1001,4 hPa 0,0 l/m 0 min 0 min 0,0 UV-I 207 W/m 12,9 km/h (3 Bft)
27.10.2013 12:02 16,3 C 15,6 C 77 % 1001,3 hPa 0,0 l/m 0 min 0 min 0,0 UV-I 185 W/m 23,2 km/h (4 Bft)
27.10.2013 12:06 16,3 C 15,0 C 76 % 1001,8 hPa 0,0 l/m 2 min 0 min 0,5 UV-I 258 W/m 46,3 km/h (6 Bft)
27.10.2013 12:08 16,3 C 15,6 C 77 % 1001,5 hPa 0,0 l/m 0 min 0 min 0,0 UV-I 216 W/m 18,0 km/h (3 Bft)
27.10.2013 12:10 16,3 C 15,6 C 77 % 1001,7 hPa 0,0 l/m 0 min 0 min 0,0 UV-I 176 W/m 28,3 km/h (4 Bft)
27.10.2013 12:12 16,3 C 15,0 C 76 % 1001,5 hPa 0,0 l/m 0 min 0 min 0,0 UV-I 174 W/m 28,3 km/h (4 Bft)
27.10.2013 12:14 16,3 C 15,0 C 77 % 1001,6 hPa 0,0 l/m 0 min 0 min 0,0 UV-I 239 W/m 30,9 km/h (5 Bft)
27.10.2013 12:16 16,3 C 15,6 C 77 % 1001,6 hPa 0,0 l/m 2 min 0 min 0,6 UV-I 306 W/m 33,5 km/h (5 Bft)
27.10.2013 12:18 16,4 C 15,6 C 76 % 1001,6 hPa 0,0 l/m 2 min 0 min 0,8 UV-I 383 W/m 36,0 km/h (5 Bft)
27.10.2013 12:20 16,6 C 16,1 C 76 % 1001,7 hPa 0,0 l/m 2 min 0 min 0,7 UV-I 422 W/m 30,9 km/h (5 Bft)
27.10.2013 12:22 16,7 C 16,1 C 76 % 1001,6 hPa 0,0 l/m 2 min 0 min 0,0 UV-I 443 W/m 23,2 km/h (4 Bft)
27.10.2013 12:24 16,7 C 15,6 C 75 % 1001,6 hPa 0,0 l/m 0 min 0 min 0,0 UV-I 146 W/m 33,5 km/h (5 Bft)
27.10.2013 12:26 16,6 C 15,0 C 75 % 1001,7 hPa 0,0 l/m 0 min 0 min 0,0 UV-I 116 W/m 25,7 km/h (4 Bft)
27.10.2013 12:28 16,5 C 15,0 C 75 % 1001,9 hPa 0,0 l/m 0 min 0 min 0,0 UV-I 100 W/m 48,9 km/h (6 Bft)
27.10.2013 12:30 16,4 C 15,0 C 75 % 1001,4 hPa 0,0 l/m 0 min 0 min 0,0 UV-I 86 W/m 38,6 km/h (5 Bft)
27.10.2013 12:32 16,3 C 15,0 C 75 % 1001,7 hPa 0,0 l/m 0 min 0 min 0,0 UV-I 56 W/m 23,2 km/h (4 Bft)
27.10.2013 12:34 16,2 C 14,4 C 75 % 1001,8 hPa 0,0 l/m 0 min 0 min 0,0 UV-I 42 W/m 33,5 km/h (5 Bft)
27.10.2013 12:36 16,2 C 14,4 C 75 % 1001,3 hPa 0,0 l/m 0 min 0 min 0,0 UV-I 35 W/m 36,0 km/h (5 Bft)
27.10.2013 12:38 16,1 C 14,4 C 75 % 1001,7 hPa 0,0 l/m 0 min 0 min 0,0 UV-I 32 W/m 51,5 km/h (7 Bft)
27.10.2013 12:40 16,0 C 14,4 C 75 % 1001,6 hPa 0,0 l/m 0 min 0 min 0,0 UV-I 32 W/m 25,7 km/h (4 Bft)
27.10.2013 12:42 15,9 C 14,4 C 76 % 1001,6 hPa 0,0 l/m 0 min 0 min 0,0 UV-I 44 W/m 18,0 km/h (3 Bft)
27.10.2013 12:44 15,9 C 14,4 C 76 % 1001,8 hPa 0,0 l/m 0 min 0 min 0,0 UV-I 53 W/m 25,7 km/h (4 Bft)
27.10.2013 12:46 15,8 C 14,4 C 76 % 1001,8 hPa 0,0 l/m 0 min 0 min 0,0 UV-I 58 W/m 30,9 km/h (5 Bft)
27.10.2013 12:48 15,8 C 14,4 C 76 % 1001,7 hPa 0,0 l/m 0 min 0 min 0,0 UV-I 49 W/m 23,2 km/h (4 Bft)
27.10.2013 12:50 15,8 C 14,4 C 76 % 1001,7 hPa 0,0 l/m 0 min 0 min 0,0 UV-I 62 W/m 51,5 km/h (7 Bft)
27.10.2013 12:52 15,7 C 14,4 C 76 % 1001,8 hPa 0,0 l/m 0 min 0 min 0,0 UV-I 72 W/m 30,9 km/h (5 Bft)
27.10.2013 12:54 15,7 C 14,4 C 76 % 1002,0 hPa 0,0 l/m 0 min 0 min 0,0 UV-I 76 W/m 36,0 km/h (5 Bft)
27.10.2013 12:56 15,7 C 14,4 C 77 % 1002,0 hPa 0,0 l/m 0 min 0 min 0,0 UV-I 77 W/m 28,3 km/h (4 Bft)
27.10.2013 12:58 15,7 C 14,4 C 77 % 1001,9 hPa 0,0 l/m 0 min 0 min 0,0 UV-I 74 W/m 23,2 km/h (4 Bft)
27.10.2013 13:00 15,6 C 14,4 C 77 % 1002,0 hPa 0,0 l/m 0 min 0 min 0,0 UV-I 74 W/m 25,7 km/h (4 Bft)
27.10.2013 13:02 15,6 C 14,4 C 77 % 1001,8 hPa 0,0 l/m 0 min 0 min 0,0 UV-I 79 W/m 18,0 km/h (3 Bft)
27.10.2013 13:06 15,6 C 14,4 C 77 % 1001,9 hPa 0,0 l/m 0 min 0 min 0,0 UV-I 114 W/m 23,2 km/h (4 Bft)
27.10.2013 13:08 15,6 C 14,4 C 77 % 1001,9 hPa 0,0 l/m 0 min 0 min 0,0 UV-I 120 W/m 12,9 km/h (3 Bft)
27.10.2013 13:10 15,6 C 14,4 C 77 % 1002,0 hPa 0,0 l/m 0 min 0 min 0,0 UV-I 123 W/m 20,6 km/h (4 Bft)
27.10.2013 13:12 15,6 C 14,4 C 77 % 1001,7 hPa 0,0 l/m 0 min 0 min 0,0 UV-I 125 W/m 25,7 km/h (4 Bft)
27.10.2013 13:14 15,5 C 14,4 C 77 % 1001,8 hPa 0,0 l/m 0 min 0 min 0,0 UV-I 142 W/m 20,6 km/h (4 Bft)
27.10.2013 13:16 15,5 C 14,4 C 77 % 1002,1 hPa 0,0 l/m 0 min 0 min 0,0 UV-I 139 W/m 12,9 km/h (3 Bft)
27.10.2013 13:18 15,4 C 14,4 C 77 % 1002,2 hPa 0,0 l/m 0 min 0 min 0,0 UV-I 98 W/m 23,2 km/h (4 Bft)
27.10.2013 13:20 15,4 C 13,9 C 77 % 1002,2 hPa 0,0 l/m 0 min 0 min 0,0 UV-I 93 W/m 33,5 km/h (5 Bft)
27.10.2013 13:22 15,3 C 13,9 C 77 % 1002,0 hPa 0,0 l/m 0 min 0 min 0,0 UV-I 113 W/m 25,7 km/h (4 Bft)
27.10.2013 13:24 15,3 C 13,9 C 77 % 1002,2 hPa 0,0 l/m 0 min 0 min 0,0 UV-I 174 W/m 10,3 km/h (2 Bft)
27.10.2013 13:26 15,2 C 13,9 C 78 % 1002,0 hPa 0,0 l/m 0 min 0 min 0,0 UV-I 190 W/m 20,6 km/h (4 Bft)
27.10.2013 13:28 15,2 C 14,4 C 77 % 1001,8 hPa 0,0 l/m 0 min 0 min 0,0 UV-I 190 W/m 23,2 km/h (4 Bft)
27.10.2013 13:30 15,2 C 13,9 C 76 % 1002,3 hPa 0,0 l/m 0 min 0 min 0,0 UV-I 128 W/m 33,5 km/h (5 Bft)
27.10.2013 13:32 15,1 C 13,9 C 77 % 1002,2 hPa 0,0 l/m 0 min 0 min 0,0 UV-I 105 W/m 30,9 km/h (5 Bft)
27.10.2013 13:34 14,9 C 13,3 C 76 % 1002,2 hPa 0,0 l/m 0 min 0 min 0,0 UV-I 185 W/m 20,6 km/h (4 Bft)
27.10.2013 13:36 14,9 C 13,9 C 76 % 1002,2 hPa 0,0 l/m 2 min 0 min 0,6 UV-I 380 W/m 25,7 km/h (4 Bft)
27.10.2013 13:38 15,0 C 13,9 C 76 % 1002,2 hPa 0,0 l/m 2 min 0 min 0,6 UV-I 406 W/m 18,0 km/h (3 Bft)
27.10.2013 13:40 15,2 C 13,9 C 76 % 1002,3 hPa 0,0 l/m 2 min 0 min 0,7 UV-I 397 W/m 18,0 km/h (3 Bft)
27.10.2013 13:42 15,3 C 13,9 C 76 % 1002,1 hPa 0,0 l/m 2 min 0 min 0,6 UV-I 369 W/m 5,1 km/h (1 Bft)
27.10.2013 13:44 15,5 C 14,4 C 76 % 1002,2 hPa 0,0 l/m 2 min 0 min 0,6 UV-I 359 W/m 15,4 km/h (3 Bft)
27.10.2013 13:46 15,6 C 14,4 C 75 % 1002,3 hPa 0,0 l/m 2 min 0 min 0,6 UV-I 352 W/m 20,6 km/h (4 Bft)
27.10.2013 13:48 15,7 C 13,9 C 75 % 1002,1 hPa 0,0 l/m 2 min 0 min 0,5 UV-I 346 W/m 36,0 km/h (5 Bft)
27.10.2013 13:50 15,6 C 13,9 C 76 % 1002,3 hPa 0,0 l/m 2 min 0 min 0,5 UV-I 345 W/m 18,0 km/h (3 Bft)
27.10.2013 13:52 15,7 C 14,4 C 76 % 1002,2 hPa 0,0 l/m 2 min 0 min 0,5 UV-I 343 W/m 15,4 km/h (3 Bft)
27.10.2013 13:54 15,7 C 14,4 C 76 % 1002,0 hPa 0,0 l/m 2 min 0 min 0,5 UV-I 339 W/m 15,4 km/h (3 Bft)
27.10.2013 13:56 15,8 C 14,4 C 77 % 1002,1 hPa 0,0 l/m 2 min 0 min 0,5 UV-I 338 W/m 23,2 km/h (4 Bft)
27.10.2013 13:58 15,8 C 14,4 C 77 % 1002,3 hPa 0,0 l/m 2 min 0 min 0,5 UV-I 334 W/m 18,0 km/h (3 Bft)
27.10.2013 14:00 15,8 C 14,4 C 76 % 1002,3 hPa 0,0 l/m 2 min 0 min 0,5 UV-I 329 W/m 48,9 km/h (6 Bft)
27.10.2013 14:02 15,8 C 14,4 C 76 % 1002,4 hPa 0,0 l/m 2 min 0 min 0,5 UV-I 329 W/m 33,5 km/h (5 Bft)
27.10.2013 14:06 15,9 C 14,4 C 76 % 1002,4 hPa 0,0 l/m 2 min 0 min 0,0 UV-I 325 W/m 38,6 km/h (5 Bft)
27.10.2013 14:08 15,9 C 14,4 C 76 % 1002,2 hPa 0,0 l/m 2 min 0 min 0,0 UV-I 323 W/m 33,5 km/h (5 Bft)
27.10.2013 14:10 15,9 C 14,4 C 76 % 1002,4 hPa 0,0 l/m 2 min 0 min 0,0 UV-I 316 W/m 36,0 km/h (5 Bft)
27.10.2013 14:12 16,0 C 14,4 C 76 % 1002,3 hPa 0,0 l/m 2 min 0 min 0,0 UV-I 322 W/m 18,0 km/h (3 Bft)
27.10.2013 14:14 16,0 C 14,4 C 76 % 1002,6 hPa 0,0 l/m 2 min 0 min 0,0 UV-I 320 W/m 30,9 km/h (5 Bft)
27.10.2013 14:16 16,1 C 14,4 C 76 % 1002,4 hPa 0,0 l/m 2 min 0 min 0,0 UV-I 322 W/m 28,3 km/h (4 Bft)
27.10.2013 14:18 16,1 C 14,4 C 76 % 1002,3 hPa 0,0 l/m 2 min 0 min 0,0 UV-I 320 W/m 28,3 km/h (4 Bft)
27.10.2013 14:20 16,1 C 14,4 C 76 % 1002,3 hPa 0,0 l/m 2 min 0 min 0,0 UV-I 325 W/m 20,6 km/h (4 Bft)
27.10.2013 14:22 16,1 C 15,0 C 76 % 1002,3 hPa 0,0 l/m 2 min 0 min 0,0 UV-I 353 W/m 25,7 km/h (4 Bft)
27.10.2013 14:24 16,1 C 15,0 C 76 % 1002,4 hPa 0,0 l/m 2 min 0 min 0,0 UV-I 353 W/m 28,3 km/h (4 Bft)
27.10.2013 14:26 16,1 C 15,0 C 76 % 1002,5 hPa 0,0 l/m 2 min 0 min 0,0 UV-I 334 W/m 15,4 km/h (3 Bft)
27.10.2013 14:28 16,2 C 15,0 C 76 % 1002,6 hPa 0,0 l/m 2 min 0 min 0,0 UV-I 369 W/m 20,6 km/h (4 Bft)
27.10.2013 14:30 16,2 C 15,0 C 75 % 1002,6 hPa 0,0 l/m 2 min 0 min 0,0 UV-I 341 W/m 23,2 km/h (4 Bft)
27.10.2013 14:32 16,3 C 15,0 C 75 % 1002,7 hPa 0,0 l/m 2 min 0 min 0,0 UV-I 332 W/m 20,6 km/h (4 Bft)
27.10.2013 14:34 16,2 C 15,0 C 75 % 1002,7 hPa 0,0 l/m 2 min 0 min 0,0 UV-I 376 W/m 18,0 km/h (3 Bft)
27.10.2013 14:36 16,3 C 15,0 C 76 % 1002,7 hPa 0,0 l/m 2 min 0 min 0,0 UV-I 376 W/m 23,2 km/h (4 Bft)
27.10.2013 14:38 16,3 C 15,0 C 75 % 1002,7 hPa 0,0 l/m 2 min 0 min 0,0 UV-I 376 W/m 46,3 km/h (6 Bft)
27.10.2013 14:40 16,2 C 15,0 C 74 % 1002,7 hPa 0,0 l/m 0 min 0 min 0,0 UV-I 134 W/m 33,5 km/h (5 Bft)
27.10.2013 14:42 16,2 C 15,0 C 75 % 1002,6 hPa 0,0 l/m 0 min 0 min 0,0 UV-I 148 W/m 25,7 km/h (4 Bft)
27.10.2013 14:44 16,1 C 15,0 C 75 % 1002,6 hPa 0,0 l/m 0 min 0 min 0,0 UV-I 104 W/m 15,4 km/h (3 Bft)
27.10.2013 14:46 16,1 C 15,0 C 75 % 1002,9 hPa 0,0 l/m 2 min 0 min 0,0 UV-I 287 W/m 28,3 km/h (4 Bft)
27.10.2013 14:48 16,1 C 15,0 C 75 % 1002,8 hPa 0,0 l/m 2 min 0 min 0,0 UV-I 378 W/m 28,3 km/h (4 Bft)
27.10.2013 14:50 16,2 C 15,0 C 75 % 1002,7 hPa 0,0 l/m 2 min 0 min 0,0 UV-I 318 W/m 20,6 km/h (4 Bft)
27.10.2013 14:52 16,2 C 15,0 C 75 % 1002,6 hPa 0,0 l/m 2 min 0 min 0,0 UV-I 278 W/m 20,6 km/h (4 Bft)
27.10.2013 14:54 16,2 C 14,4 C 75 % 1003,0 hPa 0,0 l/m 0 min 0 min 0,0 UV-I 70 W/m 18,0 km/h (3 Bft)
27.10.2013 14:56 16,0 C 14,4 C 74 % 1002,7 hPa 0,0 l/m 0 min 0 min 0,0 UV-I 62 W/m 20,6 km/h (4 Bft)
27.10.2013 14:58 15,9 C 14,4 C 75 % 1002,7 hPa 0,0 l/m 0 min 0 min 0,0 UV-I 54 W/m 5,1 km/h (1 Bft)
27.10.2013 15:00 15,8 C 13,9 C 75 % 1002,8 hPa 0,0 l/m 0 min 0 min 0,0 UV-I 56 W/m 30,9 km/h (5 Bft)
27.10.2013 15:02 15,7 C 14,4 C 75 % 1002,8 hPa 0,0 l/m 0 min 0 min 0,0 UV-I 70 W/m 23,2 km/h (4 Bft)
27.10.2013 15:06 15,7 C 14,4 C 76 % 1002,8 hPa 0,0 l/m 0 min 0 min 0,0 UV-I 65 W/m 25,7 km/h (4 Bft)
27.10.2013 15:08 15,7 C 14,4 C 76 % 1002,8 hPa 0,0 l/m 2 min 0 min 0,0 UV-I 179 W/m 25,7 km/h (4 Bft)
27.10.2013 15:10 15,7 C 14,4 C 75 % 1002,8 hPa 0,0 l/m 2 min 0 min 0,0 UV-I 271 W/m 18,0 km/h (3 Bft)
27.10.2013 15:12 15,8 C 14,4 C 75 % 1002,7 hPa 0,0 l/m 0 min 0 min 0,0 UV-I 116 W/m 20,6 km/h (4 Bft)
27.10.2013 15:14 15,8 C 14,4 C 75 % 1002,9 hPa 0,0 l/m 0 min 0 min 0,0 UV-I 74 W/m 25,7 km/h (4 Bft)
27.10.2013 15:16 15,8 C 14,4 C 75 % 1002,6 hPa 0,0 l/m 2 min 0 min 0,0 UV-I 149 W/m 10,3 km/h (2 Bft)
27.10.2013 15:18 15,8 C 14,4 C 74 % 1002,8 hPa 0,0 l/m 2 min 0 min 0,0 UV-I 216 W/m 25,7 km/h (4 Bft)
27.10.2013 15:20 15,9 C 14,4 C 74 % 1002,6 hPa 0,0 l/m 2 min 0 min 0,0 UV-I 257 W/m 23,2 km/h (4 Bft)
27.10.2013 15:22 16,0 C 14,4 C 74 % 1002,7 hPa 0,0 l/m 2 min 0 min 0,0 UV-I 227 W/m 18,0 km/h (3 Bft)
27.10.2013 15:24 16,1 C 14,4 C 73 % 1002,8 hPa 0,0 l/m 2 min 0 min 0,0 UV-I 218 W/m 15,4 km/h (3 Bft)
27.10.2013 15:26 16,0 C 14,4 C 72 % 1002,6 hPa 0,0 l/m 2 min 0 min 0,0 UV-I 199 W/m 23,2 km/h (4 Bft)
27.10.2013 15:28 15,9 C 14,4 C 72 % 1002,7 hPa 0,0 l/m 2 min 0 min 0,0 UV-I 199 W/m 10,3 km/h (2 Bft)
27.10.2013 15:30 15,9 C 14,4 C 72 % 1002,9 hPa 0,0 l/m 2 min 0 min 0,0 UV-I 190 W/m 25,7 km/h (4 Bft)
27.10.2013 15:32 15,9 C 13,9 C 71 % 1003,0 hPa 0,0 l/m 2 min 0 min 0,0 UV-I 188 W/m 33,5 km/h (5 Bft)
27.10.2013 15:34 15,9 C 13,9 C 71 % 1002,9 hPa 0,0 l/m 2 min 0 min 0,0 UV-I 153 W/m 28,3 km/h (4 Bft)
27.10.2013 15:36 15,9 C 13,9 C 71 % 1003,0 hPa 0,0 l/m 2 min 0 min 0,0 UV-I 174 W/m 15,4 km/h (3 Bft)
27.10.2013 15:38 15,8 C 13,9 C 71 % 1003,0 hPa 0,0 l/m 0 min 0 min 0,0 UV-I 67 W/m 20,6 km/h (4 Bft)
27.10.2013 15:40 15,8 C 13,9 C 72 % 1002,9 hPa 0,0 l/m 0 min 0 min 0,0 UV-I 60 W/m 33,5 km/h (5 Bft)
27.10.2013 15:42 15,7 C 13,9 C 72 % 1003,0 hPa 0,0 l/m 0 min 0 min 0,0 UV-I 60 W/m 18,0 km/h (3 Bft)
27.10.2013 15:44 15,6 C 13,9 C 72 % 1003,0 hPa 0,0 l/m 0 min 0 min 0,0 UV-I 54 W/m 15,4 km/h (3 Bft)
27.10.2013 15:46 15,6 C 13,9 C 72 % 1003,1 hPa 0,0 l/m 0 min 0 min 0,0 UV-I 49 W/m 12,9 km/h (3 Bft)
27.10.2013 15:48 15,6 C 13,9 C 73 % 1003,2 hPa 0,0 l/m 0 min 0 min 0,0 UV-I 49 W/m 18,0 km/h (3 Bft)
27.10.2013 15:50 15,5 C 13,9 C 72 % 1003,0 hPa 0,0 l/m 0 min 0 min 0,0 UV-I 49 W/m 12,9 km/h (3 Bft)
27.10.2013 15:52 15,5 C 13,9 C 72 % 1003,1 hPa 0,0 l/m 0 min 0 min 0,0 UV-I 42 W/m 30,9 km/h (5 Bft)
27.10.2013 15:54 15,5 C 13,9 C 72 % 1003,5 hPa 0,0 l/m 0 min 0 min 0,0 UV-I 37 W/m 36,0 km/h (5 Bft)
27.10.2013 15:56 15,4 C 13,9 C 73 % 1003,2 hPa 0,0 l/m 0 min 0 min 0,0 UV-I 40 W/m 7,7 km/h (2 Bft)
27.10.2013 15:58 15,4 C 13,9 C 73 % 1003,1 hPa 0,0 l/m 2 min 0 min 0,0 UV-I 104 W/m 7,7 km/h (2 Bft)
27.10.2013 16:00 15,4 C 13,9 C 73 % 1003,0 hPa 0,0 l/m 0 min 0 min 0,0 UV-I 65 W/m 15,4 km/h (3 Bft)
27.10.2013 16:02 15,4 C 13,9 C 72 % 1003,2 hPa 0,0 l/m 0 min 0 min 0,0 UV-I 79 W/m 33,5 km/h (5 Bft)
27.10.2013 16:06 15,6 C 13,9 C 71 % 1003,2 hPa 0,0 l/m 2 min 0 min 0,0 UV-I 100 W/m 15,4 km/h (3 Bft)
27.10.2013 16:08 15,6 C 14,4 C 71 % 1003,0 hPa 0,0 l/m 2 min 0 min 0,0 UV-I 111 W/m 15,4 km/h (3 Bft)
27.10.2013 16:10 15,7 C 14,4 C 71 % 1003,1 hPa 0,0 l/m 2 min 0 min 0,0 UV-I 121 W/m 20,6 km/h (4 Bft)
27.10.2013 16:12 15,7 C 14,4 C 71 % 1003,1 hPa 0,0 l/m 2 min 0 min 0,0 UV-I 88 W/m 23,2 km/h (4 Bft)
27.10.2013 16:14 15,7 C 14,4 C 70 % 1003,0 hPa 0,0 l/m 0 min 2 min 0,0 UV-I 47 W/m 18,0 km/h (3 Bft)
27.10.2013 16:16 15,7 C 13,9 C 71 % 1003,1 hPa 0,0 l/m 0 min 0 min 0,0 UV-I 37 W/m 7,7 km/h (2 Bft)
27.10.2013 16:18 15,6 C 13,9 C 70 % 1003,3 hPa 0,0 l/m 0 min 0 min 0,0 UV-I 32 W/m 20,6 km/h (4 Bft)
27.10.2013 16:20 15,7 C 13,9 C 70 % 1003,2 hPa 0,0 l/m 0 min 0 min 0,0 UV-I 33 W/m 28,3 km/h (4 Bft)
27.10.2013 16:22 15,6 C 13,9 C 70 % 1003,1 hPa 0,0 l/m 0 min 0 min 0,0 UV-I 47 W/m 20,6 km/h (4 Bft)
27.10.2013 16:24 15,6 C 13,9 C 70 % 1003,1 hPa 0,0 l/m 0 min 0 min 0,0 UV-I 46 W/m 20,6 km/h (4 Bft)
27.10.2013 16:26 15,6 C 13,9 C 70 % 1003,0 hPa 0,0 l/m 0 min 0 min 0,0 UV-I 40 W/m 18,0 km/h (3 Bft)
27.10.2013 16:28 15,6 C 13,9 C 70 % 1003,2 hPa 0,0 l/m 0 min 0 min 0,0 UV-I 44 W/m 30,9 km/h (5 Bft)
27.10.2013 16:30 15,6 C 13,9 C 70 % 1003,0 hPa 0,0 l/m 0 min 0 min 0,0 UV-I 53 W/m 20,6 km/h (4 Bft)
27.10.2013 16:32 15,6 C 13,9 C 70 % 1002,9 hPa 0,0 l/m 0 min 0 min 0,0 UV-I 46 W/m 46,3 km/h (6 Bft)
27.10.2013 16:34 15,6 C 13,9 C 70 % 1003,0 hPa 0,0 l/m 0 min 0 min 0,0 UV-I 32 W/m 30,9 km/h (5 Bft)
27.10.2013 16:36 15,6 C 13,9 C 70 % 1003,1 hPa 0,0 l/m 0 min 0 min 0,0 UV-I 23 W/m 43,8 km/h (6 Bft)
27.10.2013 16:38 15,5 C 13,9 C 70 % 1003,0 hPa 0,0 l/m 0 min 0 min 0,0 UV-I 18 W/m 20,6 km/h (4 Bft)
27.10.2013 16:40 15,4 C 13,3 C 70 % 1002,9 hPa 0,0 l/m 0 min 0 min 0,0 UV-I 16 W/m 18,0 km/h (3 Bft)
27.10.2013 16:42 15,4 C 13,3 C 71 % 1003,1 hPa 0,0 l/m 0 min 0 min 0,0 UV-I 16 W/m 12,9 km/h (3 Bft)
27.10.2013 16:44 15,3 C 13,3 C 71 % 1003,1 hPa 0,0 l/m 0 min 0 min 0,0 UV-I 14 W/m 30,9 km/h (5 Bft)
27.10.2013 16:46 15,3 C 13,3 C 71 % 1003,1 hPa 0,0 l/m 0 min 0 min 0,0 UV-I 11 W/m 18,0 km/h (3 Bft)
27.10.2013 16:48 15,3 C 13,3 C 71 % 1003,1 hPa 0,0 l/m 0 min 0 min 0,0 UV-I 9 W/m 36,0 km/h (5 Bft)
27.10.2013 16:50 15,3 C 13,3 C 71 % 1003,2 hPa 0,0 l/m 0 min 0 min 0,0 UV-I 9 W/m 23,2 km/h (4 Bft)
27.10.2013 16:52 15,3 C 13,3 C 71 % 1003,1 hPa 0,0 l/m 0 min 0 min 0,0 UV-I 9 W/m 10,3 km/h (2 Bft)
27.10.2013 16:54 15,2 C 13,3 C 71 % 1003,2 hPa 0,0 l/m 0 min 0 min 0,0 UV-I 7 W/m 15,4 km/h (3 Bft)
27.10.2013 16:56 15,2 C 13,3 C 71 % 1003,3 hPa 0,0 l/m 0 min 0 min 0,0 UV-I 7 W/m 18,0 km/h (3 Bft)
27.10.2013 16:58 15,2 C 13,3 C 71 % 1003,4 hPa 0,0 l/m 0 min 0 min 0,0 UV-I 7 W/m 20,6 km/h (4 Bft)
27.10.2013 17:00 15,2 C 13,3 C 71 % 1003,3 hPa 0,0 l/m 0 min 0 min 0,0 UV-I 5 W/m 12,9 km/h (3 Bft)
27.10.2013 17:02 15,2 C 13,3 C 71 % 1003,4 hPa 0,0 l/m 0 min 0 min 0,0 UV-I 5 W/m 2,6 km/h (1 Bft)
27.10.2013 17:06 15,2 C 13,3 C 72 % 1003,4 hPa 0,0 l/m 0 min 0 min 0,0 UV-I 5 W/m 12,9 km/h (3 Bft)
27.10.2013 17:08 15,1 C 13,3 C 72 % 1003,4 hPa 0,0 l/m 0 min 0 min 0,0 UV-I 5 W/m 18,0 km/h (3 Bft)
27.10.2013 17:10 15,2 C 13,3 C 71 % 1003,3 hPa 0,0 l/m 0 min 0 min 0,0 UV-I 0 W/m 15,4 km/h (3 Bft)
27.10.2013 17:12 15,2 C 13,3 C 72 % 1003,5 hPa 0,0 l/m 0 min 0 min 0,0 UV-I 0 W/m 20,6 km/h (4 Bft)
27.10.2013 17:14 15,2 C 13,3 C 72 % 1003,4 hPa 0,0 l/m 0 min 0 min 0,0 UV-I 0 W/m 15,4 km/h (3 Bft)
27.10.2013 17:16 15,2 C 13,3 C 72 % 1003,5 hPa 0,0 l/m 0 min 0 min 0,0 UV-I 0 W/m 12,9 km/h (3 Bft)
27.10.2013 17:18 15,2 C 13,3 C 72 % 1003,4 hPa 0,0 l/m 0 min 0 min 0,0 UV-I 0 W/m 23,2 km/h (4 Bft)
27.10.2013 17:20 15,2 C 13,3 C 72 % 1003,5 hPa 0,0 l/m 0 min 0 min 0,0 UV-I 0 W/m 23,2 km/h (4 Bft)
27.10.2013 17:22 15,2 C 13,3 C 72 % 1003,4 hPa 0,0 l/m 0 min 0 min 0,0 UV-I 0 W/m 7,7 km/h (2 Bft)
27.10.2013 17:24 15,2 C 13,3 C 72 % 1003,4 hPa 0,0 l/m 0 min 0 min 0,0 UV-I 0 W/m 23,2 km/h (4 Bft)
27.10.2013 17:26 15,2 C 13,3 C 72 % 1003,6 hPa 0,0 l/m 0 min 0 min 0,0 UV-I 0 W/m 10,3 km/h (2 Bft)
27.10.2013 17:28 15,2 C 13,3 C 71 % 1003,5 hPa 0,0 l/m 0 min 0 min 0,0 UV-I 0 W/m 20,6 km/h (4 Bft)
27.10.2013 17:30 15,2 C 13,3 C 71 % 1003,5 hPa 0,0 l/m 0 min 2 min 0,0 UV-I 0 W/m 12,9 km/h (3 Bft)
27.10.2013 17:32 15,2 C 13,3 C 72 % 1003,5 hPa 0,0 l/m 0 min 0 min 0,0 UV-I 0 W/m 2,6 km/h (1 Bft)
27.10.2013 17:34 15,2 C 12,8 C 72 % 1003,6 hPa 0,0 l/m 0 min 2 min 0,0 UV-I 0 W/m 18,0 km/h (3 Bft)
27.10.2013 17:36 15,2 C 12,8 C 72 % 1003,6 hPa 0,0 l/m 0 min 2 min 0,0 UV-I 0 W/m 12,9 km/h (3 Bft)
27.10.2013 17:38 15,2 C 12,8 C 72 % 1003,6 hPa 0,0 l/m 0 min 2 min 0,0 UV-I 0 W/m 28,3 km/h (4 Bft)
27.10.2013 17:40 15,1 C 12,8 C 73 % 1003,7 hPa 0,0 l/m 0 min 2 min 0,0 UV-I 0 W/m 25,7 km/h (4 Bft)
27.10.2013 17:42 15,1 C 12,8 C 74 % 1004,1 hPa 0,0 l/m 0 min 2 min 0,0 UV-I 0 W/m 41,2 km/h (6 Bft)
27.10.2013 17:44 15,1 C 12,2 C 75 % 1004,3 hPa 0,0 l/m 0 min 2 min 0,0 UV-I 0 W/m 28,3 km/h (4 Bft)
27.10.2013 17:46 14,9 C 11,7 C 77 % 1004,2 hPa 0,0 l/m 0 min 2 min 0,0 UV-I 0 W/m 36,0 km/h (5 Bft)
27.10.2013 17:48 14,7 C 11,1 C 78 % 1004,3 hPa 0,0 l/m 0 min 2 min 0,0 UV-I 0 W/m 23,2 km/h (4 Bft)
27.10.2013 17:50 14,5 C 11,1 C 79 % 1004,3 hPa 0,2 l/m 0 min 2 min 0,0 UV-I 0 W/m 25,7 km/h (4 Bft)
27.10.2013 17:52 14,3 C 11,1 C 79 % 1004,2 hPa 0,0 l/m 0 min 2 min 0,0 UV-I 0 W/m 18,0 km/h (3 Bft)
27.10.2013 17:54 14,2 C 11,1 C 80 % 1004,2 hPa 0,0 l/m 0 min 2 min 0,0 UV-I 0 W/m 12,9 km/h (3 Bft)
27.10.2013 17:56 14,1 C 11,1 C 81 % 1004,2 hPa 0,0 l/m 0 min 0 min 0,0 UV-I 0 W/m 10,3 km/h (2 Bft)
27.10.2013 17:58 13,9 C 11,1 C 81 % 1004,3 hPa 0,0 l/m 0 min 0 min 0,0 UV-I 0 W/m 25,7 km/h (4 Bft)
27.10.2013 18:00 13,8 C 11,1 C 82 % 1004,3 hPa 0,0 l/m 0 min 2 min 0,0 UV-I 0 W/m 12,9 km/h (3 Bft)
27.10.2013 18:02 13,7 C 11,7 C 83 % 1004,2 hPa 0,0 l/m 0 min 2 min 0,0 UV-I 0 W/m 25,7 km/h (4 Bft)
27.10.2013 18:06 13,5 C 11,7 C 83 % 1004,3 hPa 0,0 l/m 0 min 0 min 0,0 UV-I 0 W/m 15,4 km/h (3 Bft)
27.10.2013 18:08 13,4 C 11,7 C 84 % 1004,3 hPa 0,0 l/m 0 min 0 min 0,0 UV-I 0 W/m 25,7 km/h (4 Bft)
27.10.2013 18:10 13,4 C 11,7 C 84 % 1004,4 hPa 0,0 l/m 0 min 0 min 0,0 UV-I 0 W/m 7,7 km/h (2 Bft)
27.10.2013 18:12 13,3 C 11,7 C 84 % 1004,4 hPa 0,0 l/m 0 min 0 min 0,0 UV-I 0 W/m 7,7 km/h (2 Bft)
27.10.2013 18:14 13,2 C 11,7 C 85 % 1004,5 hPa 0,0 l/m 0 min 0 min 0,0 UV-I 0 W/m 18,0 km/h (3 Bft)
27.10.2013 18:16 13,2 C 11,7 C 85 % 1004,6 hPa 0,0 l/m 0 min 0 min 0,0 UV-I 0 W/m 10,3 km/h (2 Bft)
27.10.2013 18:18 13,1 C 11,7 C 85 % 1004,6 hPa 0,0 l/m 0 min 0 min 0,0 UV-I 0 W/m 10,3 km/h (2 Bft)
27.10.2013 18:20 13,1 C 11,7 C 86 % 1004,7 hPa 0,0 l/m 0 min 0 min 0,0 UV-I 0 W/m 10,3 km/h (2 Bft)
27.10.2013 18:22 13,1 C 11,7 C 86 % 1004,5 hPa 0,0 l/m 0 min 0 min 0,0 UV-I 0 W/m 15,4 km/h (3 Bft)
27.10.2013 18:24 13,0 C 11,7 C 86 % 1004,5 hPa 0,0 l/m 0 min 0 min 0,0 UV-I 0 W/m 7,7 km/h (2 Bft)
27.10.2013 18:26 12,9 C 11,1 C 87 % 1004,6 hPa 0,0 l/m 0 min 0 min 0,0 UV-I 0 W/m 12,9 km/h (3 Bft)
27.10.2013 18:28 12,9 C 11,1 C 87 % 1004,7 hPa 0,0 l/m 0 min 0 min 0,0 UV-I 0 W/m 10,3 km/h (2 Bft)
27.10.2013 18:30 12,8 C 11,1 C 87 % 1004,7 hPa 0,0 l/m 0 min 0 min 0,0 UV-I 0 W/m 2,6 km/h (1 Bft)
27.10.2013 18:32 12,8 C 11,1 C 87 % 1004,7 hPa 0,0 l/m 0 min 0 min 0,0 UV-I 0 W/m 15,4 km/h (3 Bft)
27.10.2013 18:34 12,8 C 11,7 C 87 % 1004,7 hPa 0,0 l/m 0 min 0 min 0,0 UV-I 0 W/m 18,0 km/h (3 Bft)
27.10.2013 18:36 12,8 C 11,7 C 87 % 1004,6 hPa 0,0 l/m 0 min 0 min 0,0 UV-I 0 W/m 20,6 km/h (4 Bft)
27.10.2013 18:38 12,8 C 11,7 C 87 % 1004,6 hPa 0,0 l/m 0 min 0 min 0,0 UV-I 0 W/m 7,7 km/h (2 Bft)
27.10.2013 18:40 12,9 C 11,7 C 87 % 1004,5 hPa 0,0 l/m 0 min 0 min 0,0 UV-I 0 W/m 23,2 km/h (4 Bft)
27.10.2013 18:42 12,9 C 11,7 C 87 % 1004,5 hPa 0,0 l/m 0 min 0 min 0,0 UV-I 0 W/m 18,0 km/h (3 Bft)
27.10.2013 18:44 12,9 C 11,7 C 87 % 1004,5 hPa 0,0 l/m 0 min 0 min 0,0 UV-I 0 W/m 25,7 km/h (4 Bft)
27.10.2013 18:46 13,0 C 11,7 C 87 % 1004,5 hPa 0,0 l/m 0 min 0 min 0,0 UV-I 0 W/m 15,4 km/h (3 Bft)
27.10.2013 18:48 13,1 C 11,7 C 87 % 1004,6 hPa 0,0 l/m 0 min 0 min 0,0 UV-I 0 W/m 12,9 km/h (3 Bft)
27.10.2013 18:50 13,1 C 11,7 C 86 % 1004,7 hPa 0,0 l/m 0 min 0 min 0,0 UV-I 0 W/m 18,0 km/h (3 Bft)
27.10.2013 18:52 13,2 C 11,7 C 86 % 1004,6 hPa 0,0 l/m 0 min 0 min 0,0 UV-I 0 W/m 30,9 km/h (5 Bft)
27.10.2013 18:54 13,2 C 11,7 C 85 % 1004,6 hPa 0,0 l/m 0 min 0 min 0,0 UV-I 0 W/m 12,9 km/h (3 Bft)
27.10.2013 18:56 13,3 C 11,7 C 85 % 1004,7 hPa 0,0 l/m 0 min 0 min 0,0 UV-I 0 W/m 15,4 km/h (3 Bft)
27.10.2013 18:58 13,3 C 11,7 C 84 % 1004,7 hPa 0,0 l/m 0 min 0 min 0,0 UV-I 0 W/m 36,0 km/h (5 Bft)
27.10.2013 19:00 13,3 C 11,7 C 84 % 1004,7 hPa 0,0 l/m 0 min 0 min 0,0 UV-I 0 W/m 20,6 km/h (4 Bft)
27.10.2013 19:02 13,4 C 11,7 C 84 % 1004,8 hPa 0,0 l/m 0 min 0 min 0,0 UV-I 0 W/m 12,9 km/h (3 Bft)
27.10.2013 19:06 13,4 C 11,7 C 84 % 1004,6 hPa 0,0 l/m 0 min 0 min 0,0 UV-I 0 W/m 15,4 km/h (3 Bft)
27.10.2013 19:08 13,3 C 11,7 C 84 % 1004,6 hPa 0,0 l/m 0 min 0 min 0,0 UV-I 0 W/m 25,7 km/h (4 Bft)
27.10.2013 19:10 13,3 C 11,7 C 84 % 1004,5 hPa 0,0 l/m 0 min 0 min 0,0 UV-I 0 W/m 28,3 km/h (4 Bft)
27.10.2013 19:12 13,3 C 11,7 C 84 % 1004,7 hPa 0,0 l/m 0 min 0 min 0,0 UV-I 0 W/m 20,6 km/h (4 Bft)
27.10.2013 19:14 13,3 C 11,7 C 83 % 1004,7 hPa 0,0 l/m 0 min 0 min 0,0 UV-I 0 W/m 5,1 km/h (1 Bft)
27.10.2013 19:16 13,3 C 11,7 C 83 % 1004,7 hPa 0,0 l/m 0 min 0 min 0,0 UV-I 0 W/m 15,4 km/h (3 Bft)
27.10.2013 19:18 13,3 C 11,7 C 83 % 1004,7 hPa 0,0 l/m 0 min 0 min 0,0 UV-I 0 W/m 18,0 km/h (3 Bft)
27.10.2013 19:20 13,3 C 11,7 C 83 % 1004,6 hPa 0,0 l/m 0 min 0 min 0,0 UV-I 0 W/m 12,9 km/h (3 Bft)
27.10.2013 19:22 13,3 C 11,7 C 83 % 1004,6 hPa 0,0 l/m 0 min 0 min 0,0 UV-I 0 W/m 23,2 km/h (4 Bft)
27.10.2013 19:24 13,3 C 11,7 C 83 % 1004,4 hPa 0,0 l/m 0 min 0 min 0,0 UV-I 0 W/m 36,0 km/h (5 Bft)
27.10.2013 19:26 13,3 C 11,7 C 83 % 1004,4 hPa 0,0 l/m 0 min 0 min 0,0 UV-I 0 W/m 18,0 km/h (3 Bft)
27.10.2013 19:28 13,3 C 11,7 C 82 % 1004,5 hPa 0,0 l/m 0 min 0 min 0,0 UV-I 0 W/m 23,2 km/h (4 Bft)
27.10.2013 19:30 13,3 C 11,7 C 82 % 1004,5 hPa 0,0 l/m 0 min 0 min 0,0 UV-I 0 W/m 7,7 km/h (2 Bft)
27.10.2013 19:32 13,3 C 11,7 C 82 % 1004,5 hPa 0,0 l/m 0 min 0 min 0,0 UV-I 0 W/m 25,7 km/h (4 Bft)
27.10.2013 19:34 13,3 C 11,7 C 82 % 1004,6 hPa 0,0 l/m 0 min 0 min 0,0 UV-I 0 W/m 28,3 km/h (4 Bft)
27.10.2013 19:36 13,3 C 11,7 C 82 % 1004,5 hPa 0,0 l/m 0 min 0 min 0,0 UV-I 0 W/m 15,4 km/h (3 Bft)
27.10.2013 19:38 13,3 C 11,7 C 82 % 1004,5 hPa 0,0 l/m 0 min 0 min 0,0 UV-I 0 W/m 18,0 km/h (3 Bft)
27.10.2013 19:40 13,3 C 11,7 C 82 % 1004,3 hPa 0,0 l/m 0 min 0 min 0,0 UV-I 0 W/m 25,7 km/h (4 Bft)
27.10.2013 19:42 13,3 C 11,7 C 82 % 1004,4 hPa 0,0 l/m 0 min 0 min 0,0 UV-I 0 W/m 25,7 km/h (4 Bft)
27.10.2013 19:44 13,3 C 11,7 C 82 % 1004,4 hPa 0,0 l/m 0 min 0 min 0,0 UV-I 0 W/m 20,6 km/h (4 Bft)
27.10.2013 19:46 13,3 C 11,7 C 82 % 1004,5 hPa 0,0 l/m 0 min 0 min 0,0 UV-I 0 W/m 7,7 km/h (2 Bft)
27.10.2013 19:48 13,3 C 11,7 C 82 % 1004,5 hPa 0,0 l/m 0 min 0 min 0,0 UV-I 0 W/m 25,7 km/h (4 Bft)
27.10.2013 19:50 13,3 C 11,7 C 82 % 1004,4 hPa 0,0 l/m 0 min 0 min 0,0 UV-I 0 W/m 18,0 km/h (3 Bft)
27.10.2013 19:52 13,3 C 11,7 C 82 % 1004,5 hPa 0,0 l/m 0 min 0 min 0,0 UV-I 0 W/m 12,9 km/h (3 Bft)
27.10.2013 19:54 13,3 C 11,7 C 82 % 1004,5 hPa 0,0 l/m 0 min 0 min 0,0 UV-I 0 W/m 30,9 km/h (5 Bft)
27.10.2013 19:56 13,3 C 11,7 C 82 % 1004,5 hPa 0,0 l/m 0 min 0 min 0,0 UV-I 0 W/m 20,6 km/h (4 Bft)
27.10.2013 19:58 13,3 C 11,7 C 82 % 1004,6 hPa 0,0 l/m 0 min 0 min 0,0 UV-I 0 W/m 25,7 km/h (4 Bft)
27.10.2013 20:00 13,4 C 11,7 C 82 % 1004,6 hPa 0,0 l/m 0 min 0 min 0,0 UV-I 0 W/m 23,2 km/h (4 Bft)
27.10.2013 20:02 13,4 C 11,7 C 82 % 1004,5 hPa 0,0 l/m 0 min 0 min 0,0 UV-I 0 W/m 10,3 km/h (2 Bft)
27.10.2013 20:06 13,4 C 11,7 C 81 % 1004,4 hPa 0,0 l/m 0 min 0 min 0,0 UV-I 0 W/m 20,6 km/h (4 Bft)
27.10.2013 20:08 13,4 C 11,7 C 81 % 1004,4 hPa 0,0 l/m 0 min 0 min 0,0 UV-I 0 W/m 28,3 km/h (4 Bft)
27.10.2013 20:10 13,4 C 11,7 C 81 % 1004,2 hPa 0,0 l/m 0 min 0 min 0,0 UV-I 0 W/m 20,6 km/h (4 Bft)
27.10.2013 20:12 13,4 C 11,7 C 82 % 1004,4 hPa 0,0 l/m 0 min 0 min 0,0 UV-I 0 W/m 15,4 km/h (3 Bft)
27.10.2013 20:14 13,4 C 11,7 C 82 % 1004,1 hPa 0,0 l/m 0 min 0 min 0,0 UV-I 0 W/m 15,4 km/h (3 Bft)
27.10.2013 20:16 13,4 C 11,7 C 82 % 1004,2 hPa 0,0 l/m 0 min 0 min 0,0 UV-I 0 W/m 20,6 km/h (4 Bft)
27.10.2013 20:18 13,4 C 11,7 C 82 % 1004,2 hPa 0,0 l/m 0 min 0 min 0,0 UV-I 0 W/m 10,3 km/h (2 Bft)
27.10.2013 20:20 13,4 C 11,7 C 82 % 1004,2 hPa 0,0 l/m 0 min 0 min 0,0 UV-I 0 W/m 10,3 km/h (2 Bft)
27.10.2013 20:22 13,4 C 11,7 C 81 % 1004,5 hPa 0,0 l/m 0 min 0 min 0,0 UV-I 0 W/m 15,4 km/h (3 Bft)
27.10.2013 20:24 13,4 C 11,7 C 82 % 1004,5 hPa 0,0 l/m 0 min 0 min 0,0 UV-I 0 W/m 15,4 km/h (3 Bft)
27.10.2013 20:26 13,4 C 11,7 C 82 % 1004,6 hPa 0,0 l/m 0 min 0 min 0,0 UV-I 0 W/m 15,4 km/h (3 Bft)
27.10.2013 20:28 13,4 C 11,7 C 82 % 1004,6 hPa 0,0 l/m 0 min 0 min 0,0 UV-I 0 W/m 10,3 km/h (2 Bft)
27.10.2013 20:30 13,4 C 11,7 C 82 % 1004,8 hPa 0,0 l/m 0 min 0 min 0,0 UV-I 0 W/m 12,9 km/h (3 Bft)
27.10.2013 20:32 13,4 C 11,7 C 81 % 1004,7 hPa 0,0 l/m 0 min 0 min 0,0 UV-I 0 W/m 15,4 km/h (3 Bft)
27.10.2013 20:34 13,5 C 11,7 C 81 % 1004,8 hPa 0,0 l/m 0 min 0 min 0,0 UV-I 0 W/m 12,9 km/h (3 Bft)
27.10.2013 20:36 13,5 C 11,7 C 81 % 1004,8 hPa 0,0 l/m 0 min 0 min 0,0 UV-I 0 W/m 18,0 km/h (3 Bft)
27.10.2013 20:38 13,5 C 11,7 C 81 % 1004,7 hPa 0,0 l/m 0 min 0 min 0,0 UV-I 0 W/m 20,6 km/h (4 Bft)
27.10.2013 20:40 13,6 C 12,2 C 81 % 1004,8 hPa 0,0 l/m 0 min 0 min 0,0 UV-I 0 W/m 25,7 km/h (4 Bft)
27.10.2013 20:42 13,6 C 12,2 C 80 % 1004,6 hPa 0,0 l/m 0 min 0 min 0,0 UV-I 0 W/m 20,6 km/h (4 Bft)
27.10.2013 20:44 13,6 C 12,2 C 80 % 1004,6 hPa 0,0 l/m 0 min 0 min 0,0 UV-I 0 W/m 7,7 km/h (2 Bft)
27.10.2013 20:46 13,6 C 12,2 C 80 % 1004,6 hPa 0,0 l/m 0 min 0 min 0,0 UV-I 0 W/m 12,9 km/h (3 Bft)
27.10.2013 20:48 13,7 C 12,2 C 80 % 1004,7 hPa 0,0 l/m 0 min 0 min 0,0 UV-I 0 W/m 20,6 km/h (4 Bft)
27.10.2013 20:50 13,7 C 12,2 C 80 % 1004,7 hPa 0,0 l/m 0 min 0 min 0,0 UV-I 0 W/m 23,2 km/h (4 Bft)
27.10.2013 20:52 13,8 C 12,2 C 79 % 1004,7 hPa 0,0 l/m 0 min 0 min 0,0 UV-I 0 W/m 23,2 km/h (4 Bft)
27.10.2013 20:54 13,8 C 12,2 C 79 % 1004,8 hPa 0,0 l/m 0 min 0 min 0,0 UV-I 0 W/m 12,9 km/h (3 Bft)
27.10.2013 20:56 13,8 C 12,2 C 79 % 1004,8 hPa 0,0 l/m 0 min 0 min 0,0 UV-I 0 W/m 18,0 km/h (3 Bft)
27.10.2013 20:58 13,9 C 12,2 C 79 % 1004,6 hPa 0,0 l/m 0 min 0 min 0,0 UV-I 0 W/m 18,0 km/h (3 Bft)
27.10.2013 21:00 13,9 C 12,2 C 78 % 1004,5 hPa 0,0 l/m 0 min 0 min 0,0 UV-I 0 W/m 15,4 km/h (3 Bft)
27.10.2013 21:02 13,9 C 12,2 C 78 % 1004,6 hPa 0,0 l/m 0 min 0 min 0,0 UV-I 0 W/m 12,9 km/h (3 Bft)
27.10.2013 21:06 14,0 C 12,2 C 78 % 1004,6 hPa 0,0 l/m 0 min 0 min 0,0 UV-I 0 W/m 30,9 km/h (5 Bft)
27.10.2013 21:08 14,1 C 12,2 C 78 % 1004,5 hPa 0,0 l/m 0 min 0 min 0,0 UV-I 0 W/m 36,0 km/h (5 Bft)
27.10.2013 21:10 14,1 C 12,2 C 78 % 1004,5 hPa 0,0 l/m 0 min 0 min 0,0 UV-I 0 W/m 18,0 km/h (3 Bft)
27.10.2013 21:12 14,2 C 12,2 C 78 % 1004,6 hPa 0,0 l/m 0 min 0 min 0,0 UV-I 0 W/m 30,9 km/h (5 Bft)
27.10.2013 21:14 14,1 C 12,2 C 77 % 1004,7 hPa 0,0 l/m 0 min 0 min 0,0 UV-I 0 W/m 15,4 km/h (3 Bft)
27.10.2013 21:16 14,1 C 12,2 C 77 % 1004,8 hPa 0,0 l/m 0 min 0 min 0,0 UV-I 0 W/m 23,2 km/h (4 Bft)
27.10.2013 21:18 14,2 C 12,2 C 77 % 1004,7 hPa 0,0 l/m 0 min 0 min 0,0 UV-I 0 W/m 10,3 km/h (2 Bft)
27.10.2013 21:20 14,2 C 12,2 C 77 % 1004,8 hPa 0,0 l/m 0 min 0 min 0,0 UV-I 0 W/m 23,2 km/h (4 Bft)
27.10.2013 21:22 14,2 C 12,2 C 78 % 1005,0 hPa 0,0 l/m 0 min 0 min 0,0 UV-I 0 W/m 7,7 km/h (2 Bft)
27.10.2013 21:24 14,2 C 12,2 C 78 % 1005,0 hPa 0,0 l/m 0 min 0 min 0,0 UV-I 0 W/m 12,9 km/h (3 Bft)
27.10.2013 21:26 14,2 C 12,2 C 78 % 1005,0 hPa 0,0 l/m 0 min 0 min 0,0 UV-I 0 W/m 33,5 km/h (5 Bft)
27.10.2013 21:28 14,2 C 12,2 C 78 % 1005,0 hPa 0,0 l/m 0 min 0 min 0,0 UV-I 0 W/m 20,6 km/h (4 Bft)
27.10.2013 21:30 14,2 C 12,2 C 78 % 1005,2 hPa 0,0 l/m 0 min 0 min 0,0 UV-I 0 W/m 10,3 km/h (2 Bft)
27.10.2013 21:32 14,2 C 12,2 C 78 % 1005,1 hPa 0,0 l/m 0 min 0 min 0,0 UV-I 0 W/m 10,3 km/h (2 Bft)
27.10.2013 21:34 14,2 C 12,2 C 78 % 1005,1 hPa 0,0 l/m 0 min 0 min 0,0 UV-I 0 W/m 2,6 km/h (1 Bft)
27.10.2013 21:36 14,2 C 12,2 C 78 % 1005,1 hPa 0,0 l/m 0 min 0 min 0,0 UV-I 0 W/m 10,3 km/h (2 Bft)
27.10.2013 21:38 14,2 C 12,2 C 78 % 1005,0 hPa 0,0 l/m 0 min 0 min 0,0 UV-I 0 W/m 7,7 km/h (2 Bft)
27.10.2013 21:40 14,2 C 12,2 C 78 % 1004,9 hPa 0,0 l/m 0 min 0 min 0,0 UV-I 0 W/m 15,4 km/h (3 Bft)
27.10.2013 21:42 14,2 C 12,8 C 78 % 1004,9 hPa 0,0 l/m 0 min 0 min 0,0 UV-I 0 W/m 30,9 km/h (5 Bft)
27.10.2013 21:44 14,2 C 12,8 C 78 % 1004,7 hPa 0,0 l/m 0 min 0 min 0,0 UV-I 0 W/m 30,9 km/h (5 Bft)
27.10.2013 21:46 14,2 C 12,8 C 77 % 1004,7 hPa 0,0 l/m 0 min 0 min 0,0 UV-I 0 W/m 18,0 km/h (3 Bft)
27.10.2013 21:48 14,2 C 12,8 C 78 % 1004,9 hPa 0,0 l/m 0 min 0 min 0,0 UV-I 0 W/m 25,7 km/h (4 Bft)
27.10.2013 21:50 14,2 C 12,8 C 77 % 1004,8 hPa 0,0 l/m 0 min 0 min 0,0 UV-I 0 W/m 15,4 km/h (3 Bft)
27.10.2013 21:52 14,2 C 12,8 C 77 % 1004,8 hPa 0,0 l/m 0 min 0 min 0,0 UV-I 0 W/m 23,2 km/h (4 Bft)
27.10.2013 21:54 14,2 C 12,8 C 77 % 1004,7 hPa 0,0 l/m 0 min 0 min 0,0 UV-I 0 W/m 18,0 km/h (3 Bft)
27.10.2013 21:56 14,2 C 12,8 C 77 % 1004,9 hPa 0,0 l/m 0 min 0 min 0,0 UV-I 0 W/m 12,9 km/h (3 Bft)
27.10.2013 21:58 14,2 C 12,8 C 77 % 1004,7 hPa 0,0 l/m 0 min 0 min 0,0 UV-I 0 W/m 10,3 km/h (2 Bft)
27.10.2013 22:00 14,3 C 12,8 C 77 % 1004,7 hPa 0,0 l/m 0 min 0 min 0,0 UV-I 0 W/m 33,5 km/h (5 Bft)
27.10.2013 22:02 14,3 C 12,8 C 77 % 1004,6 hPa 0,0 l/m 0 min 0 min 0,0 UV-I 0 W/m 23,2 km/h (4 Bft)
27.10.2013 22:06 14,3 C 12,8 C 77 % 1004,5 hPa 0,0 l/m 0 min 0 min 0,0 UV-I 0 W/m 30,9 km/h (5 Bft)
27.10.2013 22:08 14,3 C 12,8 C 77 % 1004,5 hPa 0,0 l/m 0 min 0 min 0,0 UV-I 0 W/m 23,2 km/h (4 Bft)
27.10.2013 22:10 14,3 C 12,8 C 77 % 1004,5 hPa 0,0 l/m 0 min 0 min 0,0 UV-I 0 W/m 20,6 km/h (4 Bft)
27.10.2013 22:12 14,3 C 12,8 C 77 % 1004,5 hPa 0,0 l/m 0 min 0 min 0,0 UV-I 0 W/m 33,5 km/h (5 Bft)
27.10.2013 22:14 14,4 C 12,8 C 77 % 1004,4 hPa 0,0 l/m 0 min 0 min 0,0 UV-I 0 W/m 23,2 km/h (4 Bft)
27.10.2013 22:16 14,4 C 12,8 C 77 % 1004,4 hPa 0,0 l/m 0 min 0 min 0,0 UV-I 0 W/m 20,6 km/h (4 Bft)
27.10.2013 22:18 14,3 C 12,8 C 77 % 1004,4 hPa 0,0 l/m 0 min 0 min 0,0 UV-I 0 W/m 36,0 km/h (5 Bft)
27.10.2013 22:20 14,4 C 12,8 C 77 % 1004,4 hPa 0,0 l/m 0 min 0 min 0,0 UV-I 0 W/m 12,9 km/h (3 Bft)
27.10.2013 22:22 14,4 C 12,8 C 77 % 1004,4 hPa 0,0 l/m 0 min 0 min 0,0 UV-I 0 W/m 12,9 km/h (3 Bft)
27.10.2013 22:24 14,4 C 12,8 C 77 % 1004,4 hPa 0,0 l/m 0 min 0 min 0,0 UV-I 0 W/m 12,9 km/h (3 Bft)
27.10.2013 22:26 14,4 C 12,8 C 77 % 1004,4 hPa 0,0 l/m 0 min 0 min 0,0 UV-I 0 W/m 20,6 km/h (4 Bft)
27.10.2013 22:28 14,3 C 12,8 C 78 % 1004,3 hPa 0,0 l/m 0 min 0 min 0,0 UV-I 0 W/m 5,1 km/h (1 Bft)
27.10.2013 22:30 14,3 C 12,8 C 78 % 1004,4 hPa 0,0 l/m 0 min 0 min 0,0 UV-I 0 W/m 30,9 km/h (5 Bft)
27.10.2013 22:32 14,3 C 12,8 C 77 % 1004,3 hPa 0,0 l/m 0 min 0 min 0,0 UV-I 0 W/m 30,9 km/h (5 Bft)
27.10.2013 22:34 14,4 C 12,8 C 77 % 1004,3 hPa 0,0 l/m 0 min 0 min 0,0 UV-I 0 W/m 12,9 km/h (3 Bft)
27.10.2013 22:36 14,4 C 12,8 C 77 % 1004,1 hPa 0,0 l/m 0 min 0 min 0,0 UV-I 0 W/m 23,2 km/h (4 Bft)
27.10.2013 22:38 14,4 C 12,8 C 77 % 1004,1 hPa 0,0 l/m 0 min 0 min 0,0 UV-I 0 W/m 18,0 km/h (3 Bft)
27.10.2013 22:40 14,4 C 12,8 C 77 % 1004,1 hPa 0,0 l/m 0 min 0 min 0,0 UV-I 0 W/m 33,5 km/h (5 Bft)
27.10.2013 22:42 14,5 C 12,8 C 77 % 1004,0 hPa 0,0 l/m 0 min 0 min 0,0 UV-I 0 W/m 18,0 km/h (3 Bft)
27.10.2013 22:44 14,5 C 12,8 C 77 % 1004,0 hPa 0,0 l/m 0 min 0 min 0,0 UV-I 0 W/m 18,0 km/h (3 Bft)
27.10.2013 22:46 14,5 C 12,8 C 77 % 1004,2 hPa 0,0 l/m 0 min 0 min 0,0 UV-I 0 W/m 10,3 km/h (2 Bft)
27.10.2013 22:48 14,6 C 12,8 C 77 % 1004,0 hPa 0,0 l/m 0 min 0 min 0,0 UV-I 0 W/m 25,7 km/h (4 Bft)
27.10.2013 22:50 14,6 C 12,8 C 77 % 1004,0 hPa 0,0 l/m 0 min 0 min 0,0 UV-I 0 W/m 23,2 km/h (4 Bft)
27.10.2013 22:52 14,6 C 12,8 C 77 % 1004,0 hPa 0,0 l/m 0 min 0 min 0,0 UV-I 0 W/m 18,0 km/h (3 Bft)
27.10.2013 22:54 14,6 C 12,8 C 77 % 1004,0 hPa 0,0 l/m 0 min 0 min 0,0 UV-I 0 W/m 12,9 km/h (3 Bft)
27.10.2013 22:56 14,6 C 12,8 C 77 % 1004,0 hPa 0,0 l/m 0 min 0 min 0,0 UV-I 0 W/m 10,3 km/h (2 Bft)
27.10.2013 22:58 14,6 C 12,8 C 77 % 1004,0 hPa 0,0 l/m 0 min 0 min 0,0 UV-I 0 W/m 5,1 km/h (1 Bft)
27.10.2013 23:00 14,6 C 12,8 C 77 % 1004,0 hPa 0,0 l/m 0 min 0 min 0,0 UV-I 0 W/m 25,7 km/h (4 Bft)
27.10.2013 23:02 14,6 C 12,8 C 77 % 1003,9 hPa 0,0 l/m 0 min 2 min 0,0 UV-I 0 W/m 28,3 km/h (4 Bft)
27.10.2013 23:06 14,6 C 12,8 C 78 % 1004,1 hPa 0,0 l/m 0 min 2 min 0,0 UV-I 0 W/m 18,0 km/h (3 Bft)
27.10.2013 23:08 14,6 C 12,8 C 78 % 1004,0 hPa 0,0 l/m 0 min 2 min 0,0 UV-I 0 W/m 18,0 km/h (3 Bft)
27.10.2013 23:10 14,5 C 12,2 C 79 % 1004,1 hPa 0,0 l/m 0 min 2 min 0,0 UV-I 0 W/m 20,6 km/h (4 Bft)
27.10.2013 23:12 14,4 C 12,2 C 79 % 1004,1 hPa 0,0 l/m 0 min 2 min 0,0 UV-I 0 W/m 15,4 km/h (3 Bft)
27.10.2013 23:14 14,3 C 11,7 C 80 % 1004,0 hPa 0,0 l/m 0 min 2 min 0,0 UV-I 0 W/m 30,9 km/h (5 Bft)
27.10.2013 23:16 14,2 C 11,7 C 81 % 1004,1 hPa 0,0 l/m 0 min 2 min 0,0 UV-I 0 W/m 18,0 km/h (3 Bft)
27.10.2013 23:18 14,2 C 11,7 C 81 % 1004,0 hPa 0,0 l/m 0 min 2 min 0,0 UV-I 0 W/m 15,4 km/h (3 Bft)
27.10.2013 23:20 14,2 C 11,7 C 82 % 1003,9 hPa 0,0 l/m 0 min 2 min 0,0 UV-I 0 W/m 23,2 km/h (4 Bft)
27.10.2013 23:22 14,2 C 11,7 C 82 % 1003,9 hPa 0,0 l/m 0 min 2 min 0,0 UV-I 0 W/m 23,2 km/h (4 Bft)
27.10.2013 23:24 14,0 C 11,1 C 83 % 1004,0 hPa 0,0 l/m 0 min 2 min 0,0 UV-I 0 W/m 10,3 km/h (2 Bft)
27.10.2013 23:26 13,9 C 11,1 C 83 % 1003,9 hPa 0,0 l/m 0 min 2 min 0,0 UV-I 0 W/m 18,0 km/h (3 Bft)
27.10.2013 23:28 13,8 C 11,1 C 84 % 1004,0 hPa 0,0 l/m 0 min 2 min 0,0 UV-I 0 W/m 30,9 km/h (5 Bft)
27.10.2013 23:30 13,8 C 11,7 C 84 % 1003,9 hPa 0,0 l/m 0 min 2 min 0,0 UV-I 0 W/m 20,6 km/h (4 Bft)
27.10.2013 23:32 13,8 C 11,7 C 84 % 1003,8 hPa 0,0 l/m 0 min 2 min 0,0 UV-I 0 W/m 15,4 km/h (3 Bft)
27.10.2013 23:34 13,8 C 11,7 C 84 % 1003,8 hPa 0,0 l/m 0 min 2 min 0,0 UV-I 0 W/m 23,2 km/h (4 Bft)
27.10.2013 23:36 13,7 C 11,7 C 84 % 1003,7 hPa 0,0 l/m 0 min 2 min 0,0 UV-I 0 W/m 18,0 km/h (3 Bft)
27.10.2013 23:38 13,7 C 11,7 C 84 % 1003,7 hPa 0,0 l/m 0 min 2 min 0,0 UV-I 0 W/m 15,4 km/h (3 Bft)
27.10.2013 23:40 13,7 C 11,7 C 84 % 1003,7 hPa 0,0 l/m 0 min 0 min 0,0 UV-I 0 W/m 7,7 km/h (2 Bft)
27.10.2013 23:42 13,8 C 12,2 C 84 % 1003,6 hPa 0,0 l/m 0 min 0 min 0,0 UV-I 0 W/m 10,3 km/h (2 Bft)
27.10.2013 23:44 13,8 C 12,2 C 84 % 1003,6 hPa 0,0 l/m 0 min 0 min 0,0 UV-I 0 W/m 12,9 km/h (3 Bft)
27.10.2013 23:46 13,8 C 12,2 C 84 % 1003,5 hPa 0,0 l/m 0 min 2 min 0,0 UV-I 0 W/m 18,0 km/h (3 Bft)
27.10.2013 23:48 13,8 C 12,2 C 84 % 1003,4 hPa 0,0 l/m 0 min 2 min 0,0 UV-I 0 W/m 30,9 km/h (5 Bft)
27.10.2013 23:50 13,8 C 12,2 C 84 % 1003,5 hPa 0,0 l/m 0 min 2 min 0,0 UV-I 0 W/m 18,0 km/h (3 Bft)
27.10.2013 23:52 13,9 C 12,2 C 84 % 1003,5 hPa 0,0 l/m 0 min 0 min 0,0 UV-I 0 W/m 18,0 km/h (3 Bft)
27.10.2013 23:54 13,9 C 12,2 C 83 % 1003,4 hPa 0,0 l/m 0 min 0 min 0,0 UV-I 0 W/m 10,3 km/h (2 Bft)
27.10.2013 23:56 13,9 C 12,2 C 83 % 1003,5 hPa 0,0 l/m 0 min 0 min 0,0 UV-I 0 W/m 12,9 km/h (3 Bft)
27.10.2013 23:58 13,9 C 12,2 C 83 % 1003,5 hPa 0,0 l/m 0 min 2 min 0,0 UV-I 0 W/m 23,2 km/h (4 Bft)
_ Min-Zeit 18:30 17:48 16:14 10:28 - - - - - 00:18
Minimum _ 12,8 C 11,1 C 70 % 1001,0 hPa - - - - - 0,0 km/h (0 Bft)
_ Max-Zeit 11:10 11:08 02:08 00:00 09:06 07:38 08:40 11:06 11:08 09:34
Maximum _ 17,3 C 16,1 C 95 % 1008,1 hPa 0,2 l/m 2 min 2 min 0,8 UV-I 533 W/m 61,9 km/h
W-SW (7 Bft)
Durchschnitt _ 15,2 C 13,4 C 81 % 1004,0 hPa #0,4 l/m #2:20 h #2:22 h 0,6 UV-I 126 W/m 19,7 km/h (3 Bft)
© 2013 W. Hausmann